<?xml version='1.0' encoding='UTF-8'?><gpx version="1.1" creator="JPX - https://github.com/jenetics/jpx" xmlns="http://www.topografix.com/GPX/1/1"><trk><trkseg><trkpt lat="40.6414933" lon="-3.33707"><ele>721.0</ele><time>2026-03-28T17:08:00.821Z</time></trkpt><trkpt lat="40.64152" lon="-3.337165"><ele>721.0</ele><time>2026-03-28T17:08:05.32Z</time></trkpt><trkpt lat="40.64154" lon="-3.3373383"><ele>721.0</ele><time>2026-03-28T17:08:11.321Z</time></trkpt><trkpt lat="40.6415317" lon="-3.33743"><ele>721.0</ele><time>2026-03-28T17:08:12.321Z</time></trkpt><trkpt lat="40.6415267" lon="-3.3375383"><ele>721.0</ele><time>2026-03-28T17:08:13.32Z</time></trkpt><trkpt lat="40.6415317" lon="-3.337655"><ele>719.5999999999999</ele><time>2026-03-28T17:08:14.32Z</time></trkpt><trkpt lat="40.64154" lon="-3.337765"><ele>718.2</ele><time>2026-03-28T17:08:15.321Z</time></trkpt><trkpt lat="40.64156" lon="-3.3378617"><ele>716.8</ele><time>2026-03-28T17:08:16.321Z</time></trkpt><trkpt lat="40.641605" lon="-3.3379633"><ele>715.4000000000001</ele><time>2026-03-28T17:08:17.321Z</time></trkpt><trkpt lat="40.6416883" lon="-3.3380433"><ele>714.0</ele><time>2026-03-28T17:08:18.321Z</time></trkpt><trkpt lat="40.641795" lon="-3.3381033"><ele>713.3333333333334</ele><time>2026-03-28T17:08:19.321Z</time></trkpt><trkpt lat="40.6419533" lon="-3.3381483"><ele>712.6666666666667</ele><time>2026-03-28T17:08:20.321Z</time></trkpt><trkpt lat="40.6421483" lon="-3.338165"><ele>712.0</ele><time>2026-03-28T17:08:21.321Z</time></trkpt><trkpt lat="40.6423567" lon="-3.3381933"><ele>712.0</ele><time>2026-03-28T17:08:22.32Z</time></trkpt><trkpt lat="40.6425583" lon="-3.3382133"><ele>712.0</ele><time>2026-03-28T17:08:23.32Z</time></trkpt><trkpt lat="40.6427467" lon="-3.338245"><ele>712.0</ele><time>2026-03-28T17:08:24.321Z</time></trkpt><trkpt lat="40.642955" lon="-3.338265"><ele>713.0</ele><time>2026-03-28T17:08:25.321Z</time></trkpt><trkpt lat="40.6431533" lon="-3.3382883"><ele>714.0</ele><time>2026-03-28T17:08:26.321Z</time></trkpt><trkpt lat="40.6433367" lon="-3.3383"><ele>715.0</ele><time>2026-03-28T17:08:27.32Z</time></trkpt><trkpt lat="40.643505" lon="-3.3383167"><ele>715.3333333333334</ele><time>2026-03-28T17:08:28.321Z</time></trkpt><trkpt lat="40.643665" lon="-3.3383383"><ele>715.6666666666666</ele><time>2026-03-28T17:08:29.32Z</time></trkpt><trkpt lat="40.6438317" lon="-3.33835"><ele>716.0</ele><time>2026-03-28T17:08:30.321Z</time></trkpt><trkpt lat="40.644005" lon="-3.3383633"><ele>716.0</ele><time>2026-03-28T17:08:31.321Z</time></trkpt><trkpt lat="40.6441983" lon="-3.3383783"><ele>716.0</ele><time>2026-03-28T17:08:32.32Z</time></trkpt><trkpt lat="40.6443667" lon="-3.3383867"><ele>716.0</ele><time>2026-03-28T17:08:33.321Z</time></trkpt><trkpt lat="40.6445233" lon="-3.3383833"><ele>716.25</ele><time>2026-03-28T17:08:34.321Z</time></trkpt><trkpt lat="40.64467" lon="-3.3383717"><ele>716.5</ele><time>2026-03-28T17:08:35.321Z</time></trkpt><trkpt lat="40.6448017" lon="-3.3383883"><ele>716.75</ele><time>2026-03-28T17:08:36.32Z</time></trkpt><trkpt lat="40.64494" lon="-3.3383983"><ele>717.0</ele><time>2026-03-28T17:08:37.321Z</time></trkpt><trkpt lat="40.6450967" lon="-3.3384033"><ele>717.0</ele><time>2026-03-28T17:08:38.321Z</time></trkpt><trkpt lat="40.6452583" lon="-3.3384083"><ele>717.0</ele><time>2026-03-28T17:08:39.32Z</time></trkpt><trkpt lat="40.6454133" lon="-3.33841"><ele>717.0</ele><time>2026-03-28T17:08:40.321Z</time></trkpt><trkpt lat="40.6455567" lon="-3.3384083"><ele>717.0</ele><time>2026-03-28T17:08:41.321Z</time></trkpt><trkpt lat="40.6456967" lon="-3.338385"><ele>717.0</ele><time>2026-03-28T17:08:42.321Z</time></trkpt><trkpt lat="40.645825" lon="-3.3383633"><ele>717.0</ele><time>2026-03-28T17:08:43.321Z</time></trkpt><trkpt lat="40.645945" lon="-3.3383533"><ele>717.0</ele><time>2026-03-28T17:08:44.321Z</time></trkpt><trkpt lat="40.6460583" lon="-3.3383533"><ele>717.0</ele><time>2026-03-28T17:08:45.321Z</time></trkpt><trkpt lat="40.64617" lon="-3.3383333"><ele>717.0</ele><time>2026-03-28T17:08:46.32Z</time></trkpt><trkpt lat="40.6462617" lon="-3.338315"><ele>717.0</ele><time>2026-03-28T17:08:47.32Z</time></trkpt><trkpt lat="40.6463417" lon="-3.3383083"><ele>717.0</ele><time>2026-03-28T17:08:48.32Z</time></trkpt><trkpt lat="40.6464117" lon="-3.3382933"><ele>717.0</ele><time>2026-03-28T17:08:49.321Z</time></trkpt><trkpt lat="40.6464967" lon="-3.3382617"><ele>717.0</ele><time>2026-03-28T17:08:51.32Z</time></trkpt><trkpt lat="40.6465717" lon="-3.3382433"><ele>717.0</ele><time>2026-03-28T17:08:57.321Z</time></trkpt><trkpt lat="40.6466367" lon="-3.3382567"><ele>717.0</ele><time>2026-03-28T17:08:58.321Z</time></trkpt><trkpt lat="40.6467233" lon="-3.3382917"><ele>717.0</ele><time>2026-03-28T17:08:59.321Z</time></trkpt><trkpt lat="40.64685" lon="-3.3383217"><ele>717.0</ele><time>2026-03-28T17:09:00.32Z</time></trkpt><trkpt lat="40.6469833" lon="-3.3383333"><ele>717.0</ele><time>2026-03-28T17:09:01.321Z</time></trkpt><trkpt lat="40.6471017" lon="-3.3383483"><ele>717.0</ele><time>2026-03-28T17:09:02.321Z</time></trkpt><trkpt lat="40.64721" lon="-3.338375"><ele>717.0</ele><time>2026-03-28T17:09:03.321Z</time></trkpt><trkpt lat="40.647325" lon="-3.338395"><ele>717.0</ele><time>2026-03-28T17:09:04.321Z</time></trkpt><trkpt lat="40.6474383" lon="-3.3384083"><ele>717.0</ele><time>2026-03-28T17:09:05.32Z</time></trkpt><trkpt lat="40.6475467" lon="-3.338425"><ele>717.0</ele><time>2026-03-28T17:09:06.321Z</time></trkpt><trkpt lat="40.647645" lon="-3.3384417"><ele>717.0</ele><time>2026-03-28T17:09:07.321Z</time></trkpt><trkpt lat="40.6477583" lon="-3.338455"><ele>717.0</ele><time>2026-03-28T17:09:08.321Z</time></trkpt><trkpt lat="40.64788" lon="-3.3384717"><ele>717.0</ele><time>2026-03-28T17:09:09.321Z</time></trkpt><trkpt lat="40.6479833" lon="-3.3384783"><ele>717.0</ele><time>2026-03-28T17:09:10.321Z</time></trkpt><trkpt lat="40.6480767" lon="-3.3384833"><ele>717.0</ele><time>2026-03-28T17:09:11.321Z</time></trkpt><trkpt lat="40.6481717" lon="-3.3384833"><ele>717.0</ele><time>2026-03-28T17:09:12.321Z</time></trkpt><trkpt lat="40.648275" lon="-3.338475"><ele>717.0</ele><time>2026-03-28T17:09:13.32Z</time></trkpt><trkpt lat="40.6483667" lon="-3.3384533"><ele>717.0</ele><time>2026-03-28T17:09:14.32Z</time></trkpt><trkpt lat="40.6484583" lon="-3.3384"><ele>717.0</ele><time>2026-03-28T17:09:15.321Z</time></trkpt><trkpt lat="40.6485483" lon="-3.3383467"><ele>717.0</ele><time>2026-03-28T17:09:16.32Z</time></trkpt><trkpt lat="40.64864" lon="-3.3383267"><ele>716.8</ele><time>2026-03-28T17:09:17.321Z</time></trkpt><trkpt lat="40.6487267" lon="-3.338335"><ele>716.6</ele><time>2026-03-28T17:09:18.321Z</time></trkpt><trkpt lat="40.6488017" lon="-3.3383817"><ele>716.4</ele><time>2026-03-28T17:09:19.321Z</time></trkpt><trkpt lat="40.6488883" lon="-3.3384533"><ele>716.1999999999999</ele><time>2026-03-28T17:09:20.32Z</time></trkpt><trkpt lat="40.649015" lon="-3.338525"><ele>716.0</ele><time>2026-03-28T17:09:21.321Z</time></trkpt><trkpt lat="40.649185" lon="-3.3386167"><ele>716.0</ele><time>2026-03-28T17:09:22.321Z</time></trkpt><trkpt lat="40.6493783" lon="-3.3386667"><ele>716.0</ele><time>2026-03-28T17:09:23.321Z</time></trkpt><trkpt lat="40.649595" lon="-3.3387167"><ele>716.0</ele><time>2026-03-28T17:09:24.321Z</time></trkpt><trkpt lat="40.64984" lon="-3.3387467"><ele>717.0</ele><time>2026-03-28T17:09:25.32Z</time></trkpt><trkpt lat="40.65009" lon="-3.3387717"><ele>718.0</ele><time>2026-03-28T17:09:26.321Z</time></trkpt><trkpt lat="40.65035" lon="-3.3388"><ele>718.0</ele><time>2026-03-28T17:09:27.32Z</time></trkpt><trkpt lat="40.6506217" lon="-3.3388333"><ele>718.0</ele><time>2026-03-28T17:09:28.321Z</time></trkpt><trkpt lat="40.6509133" lon="-3.3388667"><ele>717.5</ele><time>2026-03-28T17:09:29.32Z</time></trkpt><trkpt lat="40.65122" lon="-3.3389067"><ele>717.0</ele><time>2026-03-28T17:09:30.32Z</time></trkpt><trkpt lat="40.6515283" lon="-3.3389417"><ele>717.0</ele><time>2026-03-28T17:09:31.321Z</time></trkpt><trkpt lat="40.65183" lon="-3.338975"><ele>717.0</ele><time>2026-03-28T17:09:32.321Z</time></trkpt><trkpt lat="40.65214" lon="-3.339015"><ele>717.5</ele><time>2026-03-28T17:09:33.321Z</time></trkpt><trkpt lat="40.6524583" lon="-3.3390583"><ele>718.0</ele><time>2026-03-28T17:09:34.321Z</time></trkpt><trkpt lat="40.65277" lon="-3.3390967"><ele>718.0</ele><time>2026-03-28T17:09:35.321Z</time></trkpt><trkpt lat="40.653085" lon="-3.3391333"><ele>718.0</ele><time>2026-03-28T17:09:36.321Z</time></trkpt><trkpt lat="40.6533983" lon="-3.339185"><ele>719.0</ele><time>2026-03-28T17:09:37.32Z</time></trkpt><trkpt lat="40.65372" lon="-3.3392283"><ele>720.0</ele><time>2026-03-28T17:09:38.321Z</time></trkpt><trkpt lat="40.6540383" lon="-3.3392683"><ele>720.0</ele><time>2026-03-28T17:09:39.32Z</time></trkpt><trkpt lat="40.65435" lon="-3.3393083"><ele>720.0</ele><time>2026-03-28T17:09:40.321Z</time></trkpt><trkpt lat="40.65467" lon="-3.3393483"><ele>720.0</ele><time>2026-03-28T17:09:41.321Z</time></trkpt><trkpt lat="40.6549967" lon="-3.3393883"><ele>720.0</ele><time>2026-03-28T17:09:42.32Z</time></trkpt><trkpt lat="40.6553317" lon="-3.3394333"><ele>720.0</ele><time>2026-03-28T17:09:43.321Z</time></trkpt><trkpt lat="40.6556767" lon="-3.33948"><ele>720.0</ele><time>2026-03-28T17:09:44.32Z</time></trkpt><trkpt lat="40.6560283" lon="-3.3395217"><ele>720.5</ele><time>2026-03-28T17:09:45.321Z</time></trkpt><trkpt lat="40.6563883" lon="-3.339565"><ele>721.0</ele><time>2026-03-28T17:09:46.32Z</time></trkpt><trkpt lat="40.6567567" lon="-3.3396067"><ele>721.5</ele><time>2026-03-28T17:09:47.321Z</time></trkpt><trkpt lat="40.65713" lon="-3.3396517"><ele>722.0</ele><time>2026-03-28T17:09:48.321Z</time></trkpt><trkpt lat="40.6575067" lon="-3.3397017"><ele>722.5</ele><time>2026-03-28T17:09:49.32Z</time></trkpt><trkpt lat="40.6578833" lon="-3.339745"><ele>723.0</ele><time>2026-03-28T17:09:50.321Z</time></trkpt><trkpt lat="40.6582617" lon="-3.3398"><ele>723.0</ele><time>2026-03-28T17:09:51.321Z</time></trkpt><trkpt lat="40.658645" lon="-3.339845"><ele>723.0</ele><time>2026-03-28T17:09:52.321Z</time></trkpt><trkpt lat="40.6590283" lon="-3.3398967"><ele>723.0</ele><time>2026-03-28T17:09:53.32Z</time></trkpt><trkpt lat="40.659415" lon="-3.339945"><ele>723.0</ele><time>2026-03-28T17:09:54.321Z</time></trkpt><trkpt lat="40.6598067" lon="-3.3399967"><ele>723.5</ele><time>2026-03-28T17:09:55.321Z</time></trkpt><trkpt lat="40.6601933" lon="-3.3400467"><ele>724.0</ele><time>2026-03-28T17:09:56.321Z</time></trkpt><trkpt lat="40.660575" lon="-3.3400983"><ele>724.0</ele><time>2026-03-28T17:09:57.321Z</time></trkpt><trkpt lat="40.6609467" lon="-3.3401433"><ele>724.0</ele><time>2026-03-28T17:09:58.321Z</time></trkpt><trkpt lat="40.66131" lon="-3.3401867"><ele>724.5</ele><time>2026-03-28T17:09:59.321Z</time></trkpt><trkpt lat="40.66165" lon="-3.3402317"><ele>725.0</ele><time>2026-03-28T17:10:00.321Z</time></trkpt><trkpt lat="40.66197" lon="-3.3402733"><ele>723.5</ele><time>2026-03-28T17:10:01.32Z</time></trkpt><trkpt lat="40.66228" lon="-3.3403117"><ele>722.0</ele><time>2026-03-28T17:10:02.32Z</time></trkpt><trkpt lat="40.66257" lon="-3.3403567"><ele>722.5</ele><time>2026-03-28T17:10:03.321Z</time></trkpt><trkpt lat="40.662845" lon="-3.3403883"><ele>723.0</ele><time>2026-03-28T17:10:04.321Z</time></trkpt><trkpt lat="40.6631033" lon="-3.3404267"><ele>723.0</ele><time>2026-03-28T17:10:05.321Z</time></trkpt><trkpt lat="40.663345" lon="-3.3404617"><ele>723.0</ele><time>2026-03-28T17:10:06.32Z</time></trkpt><trkpt lat="40.66357" lon="-3.34052"><ele>723.6666666666666</ele><time>2026-03-28T17:10:07.32Z</time></trkpt><trkpt lat="40.663765" lon="-3.3406067"><ele>724.3333333333333</ele><time>2026-03-28T17:10:08.321Z</time></trkpt><trkpt lat="40.6639433" lon="-3.340735"><ele>725.0</ele><time>2026-03-28T17:10:09.321Z</time></trkpt><trkpt lat="40.6641183" lon="-3.3409083"><ele>725.0</ele><time>2026-03-28T17:10:10.321Z</time></trkpt><trkpt lat="40.6643083" lon="-3.3410983"><ele>725.0</ele><time>2026-03-28T17:10:11.321Z</time></trkpt><trkpt lat="40.6645117" lon="-3.341305"><ele>726.0</ele><time>2026-03-28T17:10:12.32Z</time></trkpt><trkpt lat="40.66473" lon="-3.3415283"><ele>727.0</ele><time>2026-03-28T17:10:13.321Z</time></trkpt><trkpt lat="40.6649633" lon="-3.3417583"><ele>727.0</ele><time>2026-03-28T17:10:14.321Z</time></trkpt><trkpt lat="40.6652133" lon="-3.3420033"><ele>727.0</ele><time>2026-03-28T17:10:15.32Z</time></trkpt><trkpt lat="40.6654633" lon="-3.3422633"><ele>726.5</ele><time>2026-03-28T17:10:16.321Z</time></trkpt><trkpt lat="40.6657133" lon="-3.3425117"><ele>726.0</ele><time>2026-03-28T17:10:17.321Z</time></trkpt><trkpt lat="40.6659417" lon="-3.34276"><ele>726.0</ele><time>2026-03-28T17:10:18.321Z</time></trkpt><trkpt lat="40.666155" lon="-3.342975"><ele>726.0</ele><time>2026-03-28T17:10:19.321Z</time></trkpt><trkpt lat="40.666355" lon="-3.3431783"><ele>726.0</ele><time>2026-03-28T17:10:20.321Z</time></trkpt><trkpt lat="40.6665367" lon="-3.3433633"><ele>726.0</ele><time>2026-03-28T17:10:21.321Z</time></trkpt><trkpt lat="40.6666917" lon="-3.3435217"><ele>726.0</ele><time>2026-03-28T17:10:22.321Z</time></trkpt><trkpt lat="40.6668367" lon="-3.343665"><ele>724.0</ele><time>2026-03-28T17:10:23.32Z</time></trkpt><trkpt lat="40.66697" lon="-3.3438083"><ele>722.0</ele><time>2026-03-28T17:10:24.321Z</time></trkpt><trkpt lat="40.667085" lon="-3.3439617"><ele>720.0</ele><time>2026-03-28T17:10:25.32Z</time></trkpt><trkpt lat="40.66719" lon="-3.3441233"><ele>719.6666666666666</ele><time>2026-03-28T17:10:26.321Z</time></trkpt><trkpt lat="40.6672867" lon="-3.3443117"><ele>719.3333333333333</ele><time>2026-03-28T17:10:27.321Z</time></trkpt><trkpt lat="40.6673733" lon="-3.344515"><ele>719.0</ele><time>2026-03-28T17:10:28.32Z</time></trkpt><trkpt lat="40.6674483" lon="-3.34473"><ele>719.0</ele><time>2026-03-28T17:10:29.321Z</time></trkpt><trkpt lat="40.6675083" lon="-3.3449667"><ele>719.0</ele><time>2026-03-28T17:10:30.321Z</time></trkpt><trkpt lat="40.6675533" lon="-3.345215"><ele>719.0</ele><time>2026-03-28T17:10:31.32Z</time></trkpt><trkpt lat="40.6675767" lon="-3.3454417"><ele>718.0</ele><time>2026-03-28T17:10:32.321Z</time></trkpt><trkpt lat="40.6675867" lon="-3.345675"><ele>717.0</ele><time>2026-03-28T17:10:33.321Z</time></trkpt><trkpt lat="40.6675817" lon="-3.345915"><ele>716.0</ele><time>2026-03-28T17:10:34.321Z</time></trkpt><trkpt lat="40.6675617" lon="-3.3461683"><ele>714.0</ele><time>2026-03-28T17:10:35.321Z</time></trkpt><trkpt lat="40.6675233" lon="-3.346425"><ele>712.0</ele><time>2026-03-28T17:10:36.321Z</time></trkpt><trkpt lat="40.6674767" lon="-3.346675"><ele>710.0</ele><time>2026-03-28T17:10:37.321Z</time></trkpt><trkpt lat="40.6674283" lon="-3.3469117"><ele>710.0</ele><time>2026-03-28T17:10:38.32Z</time></trkpt><trkpt lat="40.6673767" lon="-3.3471617"><ele>710.0</ele><time>2026-03-28T17:10:39.321Z</time></trkpt><trkpt lat="40.66733" lon="-3.34741"><ele>710.0</ele><time>2026-03-28T17:10:40.321Z</time></trkpt><trkpt lat="40.6672883" lon="-3.3476483"><ele>709.3333333333333</ele><time>2026-03-28T17:10:41.32Z</time></trkpt><trkpt lat="40.667245" lon="-3.3478883"><ele>708.6666666666666</ele><time>2026-03-28T17:10:42.32Z</time></trkpt><trkpt lat="40.6672233" lon="-3.3481333"><ele>708.0</ele><time>2026-03-28T17:10:43.321Z</time></trkpt><trkpt lat="40.6672183" lon="-3.3483783"><ele>706.6666666666666</ele><time>2026-03-28T17:10:44.32Z</time></trkpt><trkpt lat="40.66722" lon="-3.3486333"><ele>705.3333333333333</ele><time>2026-03-28T17:10:45.32Z</time></trkpt><trkpt lat="40.6672283" lon="-3.3488883"><ele>704.0</ele><time>2026-03-28T17:10:46.32Z</time></trkpt><trkpt lat="40.6672567" lon="-3.34914"><ele>703.6666666666666</ele><time>2026-03-28T17:10:47.32Z</time></trkpt><trkpt lat="40.6672867" lon="-3.349395"><ele>703.3333333333334</ele><time>2026-03-28T17:10:48.321Z</time></trkpt><trkpt lat="40.6673267" lon="-3.3496467"><ele>703.0</ele><time>2026-03-28T17:10:49.321Z</time></trkpt><trkpt lat="40.667375" lon="-3.3498833"><ele>703.6666666666667</ele><time>2026-03-28T17:10:50.32Z</time></trkpt><trkpt lat="40.6674283" lon="-3.3501167"><ele>704.3333333333334</ele><time>2026-03-28T17:10:51.321Z</time></trkpt><trkpt lat="40.6674883" lon="-3.35035"><ele>705.0</ele><time>2026-03-28T17:10:52.321Z</time></trkpt><trkpt lat="40.66755" lon="-3.3505683"><ele>705.3333333333334</ele><time>2026-03-28T17:10:53.321Z</time></trkpt><trkpt lat="40.6676083" lon="-3.3507733"><ele>705.6666666666667</ele><time>2026-03-28T17:10:54.321Z</time></trkpt><trkpt lat="40.667665" lon="-3.3509733"><ele>706.0</ele><time>2026-03-28T17:10:55.321Z</time></trkpt><trkpt lat="40.6677383" lon="-3.3511733"><ele>706.0</ele><time>2026-03-28T17:10:56.32Z</time></trkpt><trkpt lat="40.66781" lon="-3.35137"><ele>706.0</ele><time>2026-03-28T17:10:57.321Z</time></trkpt><trkpt lat="40.66788" lon="-3.3515533"><ele>706.0</ele><time>2026-03-28T17:10:58.321Z</time></trkpt><trkpt lat="40.6679533" lon="-3.35173"><ele>706.25</ele><time>2026-03-28T17:10:59.321Z</time></trkpt><trkpt lat="40.6680283" lon="-3.3518883"><ele>706.5</ele><time>2026-03-28T17:11:00.32Z</time></trkpt><trkpt lat="40.6680983" lon="-3.35205"><ele>706.75</ele><time>2026-03-28T17:11:01.321Z</time></trkpt><trkpt lat="40.668175" lon="-3.352205"><ele>707.0</ele><time>2026-03-28T17:11:02.321Z</time></trkpt><trkpt lat="40.6682533" lon="-3.352365"><ele>708.0</ele><time>2026-03-28T17:11:03.321Z</time></trkpt><trkpt lat="40.6683417" lon="-3.3525467"><ele>709.0</ele><time>2026-03-28T17:11:04.321Z</time></trkpt><trkpt lat="40.6684467" lon="-3.3527567"><ele>710.0</ele><time>2026-03-28T17:11:05.321Z</time></trkpt><trkpt lat="40.66857" lon="-3.3529883"><ele>711.5</ele><time>2026-03-28T17:11:06.32Z</time></trkpt><trkpt lat="40.6687033" lon="-3.3532417"><ele>713.0</ele><time>2026-03-28T17:11:07.321Z</time></trkpt><trkpt lat="40.6688583" lon="-3.353505"><ele>713.0</ele><time>2026-03-28T17:11:08.32Z</time></trkpt><trkpt lat="40.6690217" lon="-3.3537567"><ele>713.0</ele><time>2026-03-28T17:11:09.32Z</time></trkpt><trkpt lat="40.6691983" lon="-3.3539967"><ele>714.0</ele><time>2026-03-28T17:11:10.32Z</time></trkpt><trkpt lat="40.669385" lon="-3.3542483"><ele>715.0</ele><time>2026-03-28T17:11:11.32Z</time></trkpt><trkpt lat="40.669585" lon="-3.3545117"><ele>716.0</ele><time>2026-03-28T17:11:12.321Z</time></trkpt><trkpt lat="40.669795" lon="-3.35478"><ele>717.0</ele><time>2026-03-28T17:11:13.321Z</time></trkpt><trkpt lat="40.6700133" lon="-3.355065"><ele>717.0</ele><time>2026-03-28T17:11:14.321Z</time></trkpt><trkpt lat="40.6702367" lon="-3.3553533"><ele>717.0</ele><time>2026-03-28T17:11:15.321Z</time></trkpt><trkpt lat="40.67046" lon="-3.3556433"><ele>718.5</ele><time>2026-03-28T17:11:16.32Z</time></trkpt><trkpt lat="40.6706833" lon="-3.355935"><ele>720.0</ele><time>2026-03-28T17:11:17.32Z</time></trkpt><trkpt lat="40.67091" lon="-3.3562267"><ele>720.0</ele><time>2026-03-28T17:11:18.321Z</time></trkpt><trkpt lat="40.6711417" lon="-3.35652"><ele>720.0</ele><time>2026-03-28T17:11:19.32Z</time></trkpt><trkpt lat="40.671375" lon="-3.3568167"><ele>720.0</ele><time>2026-03-28T17:11:20.321Z</time></trkpt><trkpt lat="40.6716117" lon="-3.3571167"><ele>720.0</ele><time>2026-03-28T17:11:21.321Z</time></trkpt><trkpt lat="40.6718517" lon="-3.3574233"><ele>721.0</ele><time>2026-03-28T17:11:22.32Z</time></trkpt><trkpt lat="40.672095" lon="-3.357735"><ele>722.0</ele><time>2026-03-28T17:11:23.32Z</time></trkpt><trkpt lat="40.6723433" lon="-3.3580617"><ele>722.0</ele><time>2026-03-28T17:11:24.32Z</time></trkpt><trkpt lat="40.672595" lon="-3.3583833"><ele>722.0</ele><time>2026-03-28T17:11:25.321Z</time></trkpt><trkpt lat="40.672845" lon="-3.3587083"><ele>724.0</ele><time>2026-03-28T17:11:26.32Z</time></trkpt><trkpt lat="40.67311" lon="-3.3590517"><ele>726.0</ele><time>2026-03-28T17:11:27.321Z</time></trkpt><trkpt lat="40.6733733" lon="-3.3593817"><ele>727.0</ele><time>2026-03-28T17:11:28.321Z</time></trkpt><trkpt lat="40.6736367" lon="-3.359725"><ele>728.0</ele><time>2026-03-28T17:11:29.321Z</time></trkpt><trkpt lat="40.6739017" lon="-3.3600583"><ele>728.0</ele><time>2026-03-28T17:11:30.321Z</time></trkpt><trkpt lat="40.6741567" lon="-3.3603767"><ele>728.0</ele><time>2026-03-28T17:11:31.321Z</time></trkpt><trkpt lat="40.6743833" lon="-3.3606667"><ele>729.0</ele><time>2026-03-28T17:11:32.321Z</time></trkpt><trkpt lat="40.6745917" lon="-3.360945"><ele>730.0</ele><time>2026-03-28T17:11:33.321Z</time></trkpt><trkpt lat="40.6747933" lon="-3.361205"><ele>730.5</ele><time>2026-03-28T17:11:34.32Z</time></trkpt><trkpt lat="40.6749933" lon="-3.361465"><ele>731.0</ele><time>2026-03-28T17:11:35.321Z</time></trkpt><trkpt lat="40.6752117" lon="-3.3617433"><ele>731.0</ele><time>2026-03-28T17:11:36.321Z</time></trkpt><trkpt lat="40.6754283" lon="-3.362035"><ele>731.0</ele><time>2026-03-28T17:11:37.321Z</time></trkpt><trkpt lat="40.6756467" lon="-3.3623233"><ele>730.5</ele><time>2026-03-28T17:11:38.32Z</time></trkpt><trkpt lat="40.6758783" lon="-3.36262"><ele>730.0</ele><time>2026-03-28T17:11:39.321Z</time></trkpt><trkpt lat="40.6761067" lon="-3.362915"><ele>731.5</ele><time>2026-03-28T17:11:40.321Z</time></trkpt><trkpt lat="40.67632" lon="-3.363195"><ele>733.0</ele><time>2026-03-28T17:11:41.321Z</time></trkpt><trkpt lat="40.6765217" lon="-3.3634817"><ele>733.0</ele><time>2026-03-28T17:11:42.321Z</time></trkpt><trkpt lat="40.676735" lon="-3.3637667"><ele>733.0</ele><time>2026-03-28T17:11:43.321Z</time></trkpt><trkpt lat="40.6769583" lon="-3.36407"><ele>734.0</ele><time>2026-03-28T17:11:44.321Z</time></trkpt><trkpt lat="40.67719" lon="-3.3643733"><ele>735.0</ele><time>2026-03-28T17:11:45.32Z</time></trkpt><trkpt lat="40.67743" lon="-3.3646783"><ele>735.0</ele><time>2026-03-28T17:11:46.321Z</time></trkpt><trkpt lat="40.6776783" lon="-3.3649883"><ele>735.0</ele><time>2026-03-28T17:11:47.321Z</time></trkpt><trkpt lat="40.6779317" lon="-3.3653017"><ele>738.0</ele><time>2026-03-28T17:11:48.321Z</time></trkpt><trkpt lat="40.678185" lon="-3.3656267"><ele>741.0</ele><time>2026-03-28T17:11:49.321Z</time></trkpt><trkpt lat="40.6784317" lon="-3.3659533"><ele>741.5</ele><time>2026-03-28T17:11:50.32Z</time></trkpt><trkpt lat="40.6786783" lon="-3.366255"><ele>742.0</ele><time>2026-03-28T17:11:51.321Z</time></trkpt><trkpt lat="40.6789083" lon="-3.3665467"><ele>742.0</ele><time>2026-03-28T17:11:52.32Z</time></trkpt><trkpt lat="40.679145" lon="-3.3668467"><ele>742.0</ele><time>2026-03-28T17:11:53.32Z</time></trkpt><trkpt lat="40.6793833" lon="-3.3671483"><ele>743.0</ele><time>2026-03-28T17:11:54.321Z</time></trkpt><trkpt lat="40.6796083" lon="-3.3674433"><ele>744.0</ele><time>2026-03-28T17:11:55.321Z</time></trkpt><trkpt lat="40.6798233" lon="-3.3677067"><ele>744.0</ele><time>2026-03-28T17:11:56.321Z</time></trkpt><trkpt lat="40.6800267" lon="-3.3679633"><ele>744.0</ele><time>2026-03-28T17:11:57.321Z</time></trkpt><trkpt lat="40.6802117" lon="-3.368195"><ele>744.5</ele><time>2026-03-28T17:11:58.321Z</time></trkpt><trkpt lat="40.6803833" lon="-3.36841"><ele>745.0</ele><time>2026-03-28T17:11:59.321Z</time></trkpt><trkpt lat="40.6805417" lon="-3.3686083"><ele>745.0</ele><time>2026-03-28T17:12:00.32Z</time></trkpt><trkpt lat="40.6806717" lon="-3.368785"><ele>745.0</ele><time>2026-03-28T17:12:01.32Z</time></trkpt><trkpt lat="40.6807517" lon="-3.368995"><ele>745.0</ele><time>2026-03-28T17:12:02.32Z</time></trkpt><trkpt lat="40.68081" lon="-3.369235"><ele>747.0</ele><time>2026-03-28T17:12:03.32Z</time></trkpt><trkpt lat="40.6808483" lon="-3.3695"><ele>749.0</ele><time>2026-03-28T17:12:04.321Z</time></trkpt><trkpt lat="40.6808767" lon="-3.3698"><ele>751.0</ele><time>2026-03-28T17:12:05.32Z</time></trkpt><trkpt lat="40.6809083" lon="-3.3701283"><ele>752.5</ele><time>2026-03-28T17:12:06.32Z</time></trkpt><trkpt lat="40.6809367" lon="-3.3704767"><ele>754.0</ele><time>2026-03-28T17:12:07.321Z</time></trkpt><trkpt lat="40.6809433" lon="-3.3708167"><ele>755.3333333333334</ele><time>2026-03-28T17:12:08.321Z</time></trkpt><trkpt lat="40.680955" lon="-3.3711233"><ele>756.6666666666666</ele><time>2026-03-28T17:12:09.321Z</time></trkpt><trkpt lat="40.6809717" lon="-3.3714033"><ele>758.0</ele><time>2026-03-28T17:12:10.321Z</time></trkpt><trkpt lat="40.680985" lon="-3.37166"><ele>760.0</ele><time>2026-03-28T17:12:11.321Z</time></trkpt><trkpt lat="40.681" lon="-3.3718917"><ele>762.0</ele><time>2026-03-28T17:12:12.32Z</time></trkpt><trkpt lat="40.6810033" lon="-3.37211"><ele>764.0</ele><time>2026-03-28T17:12:13.321Z</time></trkpt><trkpt lat="40.6810167" lon="-3.37232"><ele>765.3333333333333</ele><time>2026-03-28T17:12:14.32Z</time></trkpt><trkpt lat="40.6810267" lon="-3.37253"><ele>766.6666666666666</ele><time>2026-03-28T17:12:15.32Z</time></trkpt><trkpt lat="40.6810533" lon="-3.3727567"><ele>768.0</ele><time>2026-03-28T17:12:16.32Z</time></trkpt><trkpt lat="40.68112" lon="-3.3729767"><ele>768.3333333333333</ele><time>2026-03-28T17:12:17.321Z</time></trkpt><trkpt lat="40.6812217" lon="-3.3731483"><ele>768.6666666666666</ele><time>2026-03-28T17:12:18.32Z</time></trkpt><trkpt lat="40.681345" lon="-3.3732983"><ele>769.0</ele><time>2026-03-28T17:12:19.321Z</time></trkpt><trkpt lat="40.6814933" lon="-3.3734483"><ele>769.0</ele><time>2026-03-28T17:12:20.321Z</time></trkpt><trkpt lat="40.6816833" lon="-3.37363"><ele>769.0</ele><time>2026-03-28T17:12:21.321Z</time></trkpt><trkpt lat="40.6818817" lon="-3.3738267"><ele>769.5</ele><time>2026-03-28T17:12:22.321Z</time></trkpt><trkpt lat="40.68208" lon="-3.3740117"><ele>770.0</ele><time>2026-03-28T17:12:23.32Z</time></trkpt><trkpt lat="40.6822617" lon="-3.3741667"><ele>770.0</ele><time>2026-03-28T17:12:24.32Z</time></trkpt><trkpt lat="40.6824283" lon="-3.3743083"><ele>770.0</ele><time>2026-03-28T17:12:25.321Z</time></trkpt><trkpt lat="40.682585" lon="-3.37446"><ele>770.0</ele><time>2026-03-28T17:12:26.321Z</time></trkpt><trkpt lat="40.6827183" lon="-3.3746067"><ele>769.5</ele><time>2026-03-28T17:12:27.321Z</time></trkpt><trkpt lat="40.6828367" lon="-3.3747517"><ele>769.0</ele><time>2026-03-28T17:12:28.32Z</time></trkpt><trkpt lat="40.682915" lon="-3.3749033"><ele>768.5</ele><time>2026-03-28T17:12:29.32Z</time></trkpt><trkpt lat="40.6829533" lon="-3.3750617"><ele>768.0</ele><time>2026-03-28T17:12:30.321Z</time></trkpt><trkpt lat="40.6829517" lon="-3.3752333"><ele>768.0</ele><time>2026-03-28T17:12:31.321Z</time></trkpt><trkpt lat="40.6829017" lon="-3.37541"><ele>768.0</ele><time>2026-03-28T17:12:32.32Z</time></trkpt><trkpt lat="40.68283" lon="-3.3756217"><ele>768.0</ele><time>2026-03-28T17:12:33.321Z</time></trkpt><trkpt lat="40.6827617" lon="-3.3758583"><ele>771.3333333333333</ele><time>2026-03-28T17:12:34.32Z</time></trkpt><trkpt lat="40.6827283" lon="-3.376085"><ele>774.6666666666666</ele><time>2026-03-28T17:12:35.321Z</time></trkpt><trkpt lat="40.6827233" lon="-3.376305"><ele>778.0</ele><time>2026-03-28T17:12:36.321Z</time></trkpt><trkpt lat="40.682765" lon="-3.3765117"><ele>778.0</ele><time>2026-03-28T17:12:37.321Z</time></trkpt><trkpt lat="40.6828467" lon="-3.3767333"><ele>778.0</ele><time>2026-03-28T17:12:38.321Z</time></trkpt><trkpt lat="40.68294" lon="-3.3769517"><ele>778.0</ele><time>2026-03-28T17:12:39.321Z</time></trkpt><trkpt lat="40.6830283" lon="-3.37715"><ele>779.6666666666666</ele><time>2026-03-28T17:12:40.321Z</time></trkpt><trkpt lat="40.6831133" lon="-3.37734"><ele>781.3333333333333</ele><time>2026-03-28T17:12:41.321Z</time></trkpt><trkpt lat="40.683185" lon="-3.3775267"><ele>783.0</ele><time>2026-03-28T17:12:42.321Z</time></trkpt><trkpt lat="40.683255" lon="-3.3777117"><ele>783.0</ele><time>2026-03-28T17:12:43.32Z</time></trkpt><trkpt lat="40.6833233" lon="-3.377895"><ele>783.0</ele><time>2026-03-28T17:12:44.321Z</time></trkpt><trkpt lat="40.6833867" lon="-3.3780483"><ele>783.0</ele><time>2026-03-28T17:12:45.321Z</time></trkpt><trkpt lat="40.6834483" lon="-3.3782017"><ele>783.0</ele><time>2026-03-28T17:12:46.321Z</time></trkpt><trkpt lat="40.6835033" lon="-3.3783483"><ele>783.75</ele><time>2026-03-28T17:12:47.321Z</time></trkpt><trkpt lat="40.68356" lon="-3.3785017"><ele>784.5</ele><time>2026-03-28T17:12:48.321Z</time></trkpt><trkpt lat="40.6836117" lon="-3.3786533"><ele>785.25</ele><time>2026-03-28T17:12:49.321Z</time></trkpt><trkpt lat="40.68367" lon="-3.37881"><ele>786.0</ele><time>2026-03-28T17:12:50.321Z</time></trkpt><trkpt lat="40.6837317" lon="-3.3789617"><ele>787.25</ele><time>2026-03-28T17:12:51.321Z</time></trkpt><trkpt lat="40.6837867" lon="-3.379115"><ele>788.5</ele><time>2026-03-28T17:12:52.321Z</time></trkpt><trkpt lat="40.683845" lon="-3.3792667"><ele>789.75</ele><time>2026-03-28T17:12:53.321Z</time></trkpt><trkpt lat="40.6839" lon="-3.3794067"><ele>791.0</ele><time>2026-03-28T17:12:54.321Z</time></trkpt><trkpt lat="40.6839567" lon="-3.3795383"><ele>791.0</ele><time>2026-03-28T17:12:55.321Z</time></trkpt><trkpt lat="40.68402" lon="-3.37968"><ele>791.0</ele><time>2026-03-28T17:12:56.32Z</time></trkpt><trkpt lat="40.6840733" lon="-3.3798017"><ele>791.0</ele><time>2026-03-28T17:12:57.32Z</time></trkpt><trkpt lat="40.6841217" lon="-3.3799333"><ele>791.0</ele><time>2026-03-28T17:12:58.321Z</time></trkpt><trkpt lat="40.6841767" lon="-3.38007"><ele>791.5</ele><time>2026-03-28T17:12:59.32Z</time></trkpt><trkpt lat="40.6842233" lon="-3.3802417"><ele>792.0</ele><time>2026-03-28T17:13:00.32Z</time></trkpt><trkpt lat="40.6842467" lon="-3.380435"><ele>792.5</ele><time>2026-03-28T17:13:01.32Z</time></trkpt><trkpt lat="40.68423" lon="-3.3806483"><ele>793.0</ele><time>2026-03-28T17:13:02.321Z</time></trkpt><trkpt lat="40.6842033" lon="-3.3808917"><ele>794.0</ele><time>2026-03-28T17:13:03.32Z</time></trkpt><trkpt lat="40.684175" lon="-3.3811"><ele>795.0</ele><time>2026-03-28T17:13:04.321Z</time></trkpt><trkpt lat="40.6841333" lon="-3.38132"><ele>796.0</ele><time>2026-03-28T17:13:05.321Z</time></trkpt><trkpt lat="40.6840933" lon="-3.3815117"><ele>796.5</ele><time>2026-03-28T17:13:06.321Z</time></trkpt><trkpt lat="40.684055" lon="-3.3817017"><ele>797.0</ele><time>2026-03-28T17:13:07.321Z</time></trkpt><trkpt lat="40.684015" lon="-3.381885"><ele>797.5</ele><time>2026-03-28T17:13:08.32Z</time></trkpt><trkpt lat="40.6839767" lon="-3.3820717"><ele>798.0</ele><time>2026-03-28T17:13:09.321Z</time></trkpt><trkpt lat="40.6839467" lon="-3.382245"><ele>798.0</ele><time>2026-03-28T17:13:10.32Z</time></trkpt><trkpt lat="40.6839233" lon="-3.3824067"><ele>798.0</ele><time>2026-03-28T17:13:11.321Z</time></trkpt><trkpt lat="40.6839217" lon="-3.38255"><ele>798.0</ele><time>2026-03-28T17:13:12.32Z</time></trkpt><trkpt lat="40.6839367" lon="-3.3826667"><ele>798.0</ele><time>2026-03-28T17:13:13.321Z</time></trkpt><trkpt lat="40.68397" lon="-3.3827833"><ele>798.0</ele><time>2026-03-28T17:13:14.321Z</time></trkpt><trkpt lat="40.6839933" lon="-3.3828917"><ele>798.0</ele><time>2026-03-28T17:13:15.321Z</time></trkpt><trkpt lat="40.68398" lon="-3.3829817"><ele>798.0</ele><time>2026-03-28T17:13:16.321Z</time></trkpt><trkpt lat="40.6839417" lon="-3.3830583"><ele>798.0</ele><time>2026-03-28T17:13:17.321Z</time></trkpt><trkpt lat="40.68386" lon="-3.3831283"><ele>798.0</ele><time>2026-03-28T17:13:19.321Z</time></trkpt><trkpt lat="40.6837867" lon="-3.3831117"><ele>798.0</ele><time>2026-03-28T17:13:24.32Z</time></trkpt><trkpt lat="40.6836617" lon="-3.3830317"><ele>798.5</ele><time>2026-03-28T17:13:31.321Z</time></trkpt><trkpt lat="40.6835733" lon="-3.3829533"><ele>799.0</ele><time>2026-03-28T17:13:32.321Z</time></trkpt><trkpt lat="40.6834633" lon="-3.3828683"><ele>799.5</ele><time>2026-03-28T17:13:33.321Z</time></trkpt><trkpt lat="40.6833483" lon="-3.382845"><ele>800.0</ele><time>2026-03-28T17:13:34.32Z</time></trkpt><trkpt lat="40.68322" lon="-3.3828683"><ele>800.0</ele><time>2026-03-28T17:13:35.321Z</time></trkpt><trkpt lat="40.6830583" lon="-3.38294"><ele>800.0</ele><time>2026-03-28T17:13:36.321Z</time></trkpt><trkpt lat="40.682885" lon="-3.3830267"><ele>800.0</ele><time>2026-03-28T17:13:37.321Z</time></trkpt><trkpt lat="40.6826683" lon="-3.3831283"><ele>798.0</ele><time>2026-03-28T17:13:38.321Z</time></trkpt><trkpt lat="40.682435" lon="-3.383235"><ele>796.0</ele><time>2026-03-28T17:13:39.321Z</time></trkpt><trkpt lat="40.6822" lon="-3.3833367"><ele>796.0</ele><time>2026-03-28T17:13:40.32Z</time></trkpt><trkpt lat="40.6819883" lon="-3.3834433"><ele>796.0</ele><time>2026-03-28T17:13:41.321Z</time></trkpt><trkpt lat="40.6817983" lon="-3.38356"><ele>796.0</ele><time>2026-03-28T17:13:42.32Z</time></trkpt><trkpt lat="40.6816317" lon="-3.383715"><ele>797.0</ele><time>2026-03-28T17:13:43.321Z</time></trkpt><trkpt lat="40.681465" lon="-3.383935"><ele>798.0</ele><time>2026-03-28T17:13:44.32Z</time></trkpt><trkpt lat="40.68128" lon="-3.38417"><ele>798.0</ele><time>2026-03-28T17:13:45.321Z</time></trkpt><trkpt lat="40.6811017" lon="-3.3844033"><ele>798.0</ele><time>2026-03-28T17:13:46.321Z</time></trkpt><trkpt lat="40.680935" lon="-3.3846167"><ele>795.0</ele><time>2026-03-28T17:13:47.321Z</time></trkpt><trkpt lat="40.6807767" lon="-3.384815"><ele>792.0</ele><time>2026-03-28T17:13:48.321Z</time></trkpt><trkpt lat="40.6806383" lon="-3.3849933"><ele>789.0</ele><time>2026-03-28T17:13:49.32Z</time></trkpt><trkpt lat="40.6804867" lon="-3.3851717"><ele>789.0</ele><time>2026-03-28T17:13:50.321Z</time></trkpt><trkpt lat="40.6803233" lon="-3.3853333"><ele>789.0</ele><time>2026-03-28T17:13:51.321Z</time></trkpt><trkpt lat="40.6801483" lon="-3.385455"><ele>789.0</ele><time>2026-03-28T17:13:52.321Z</time></trkpt><trkpt lat="40.6799483" lon="-3.38554"><ele>788.6666666666667</ele><time>2026-03-28T17:13:53.321Z</time></trkpt><trkpt lat="40.679745" lon="-3.385575"><ele>788.3333333333334</ele><time>2026-03-28T17:13:54.32Z</time></trkpt><trkpt lat="40.67952" lon="-3.3855833"><ele>788.0</ele><time>2026-03-28T17:13:55.321Z</time></trkpt><trkpt lat="40.67928" lon="-3.3856133"><ele>788.6666666666667</ele><time>2026-03-28T17:13:56.321Z</time></trkpt><trkpt lat="40.67906" lon="-3.3856383"><ele>789.3333333333333</ele><time>2026-03-28T17:13:57.32Z</time></trkpt><trkpt lat="40.6788617" lon="-3.3857067"><ele>790.0</ele><time>2026-03-28T17:13:58.321Z</time></trkpt><trkpt lat="40.67865" lon="-3.38581"><ele>789.5</ele><time>2026-03-28T17:13:59.321Z</time></trkpt><trkpt lat="40.678445" lon="-3.3859517"><ele>789.0</ele><time>2026-03-28T17:14:00.321Z</time></trkpt><trkpt lat="40.678235" lon="-3.386115"><ele>789.0</ele><time>2026-03-28T17:14:01.321Z</time></trkpt><trkpt lat="40.6780383" lon="-3.3862533"><ele>789.0</ele><time>2026-03-28T17:14:02.32Z</time></trkpt><trkpt lat="40.6778483" lon="-3.3863733"><ele>789.0</ele><time>2026-03-28T17:14:03.321Z</time></trkpt><trkpt lat="40.677675" lon="-3.3864583"><ele>788.3333333333333</ele><time>2026-03-28T17:14:04.321Z</time></trkpt><trkpt lat="40.6774617" lon="-3.3865217"><ele>787.6666666666666</ele><time>2026-03-28T17:14:05.321Z</time></trkpt><trkpt lat="40.677235" lon="-3.3865617"><ele>787.0</ele><time>2026-03-28T17:14:06.321Z</time></trkpt><trkpt lat="40.6770017" lon="-3.386575"><ele>786.0</ele><time>2026-03-28T17:14:07.321Z</time></trkpt><trkpt lat="40.6767733" lon="-3.3865883"><ele>785.0</ele><time>2026-03-28T17:14:08.321Z</time></trkpt><trkpt lat="40.6765533" lon="-3.3866167"><ele>785.0</ele><time>2026-03-28T17:14:09.321Z</time></trkpt><trkpt lat="40.6763333" lon="-3.3866783"><ele>785.0</ele><time>2026-03-28T17:14:10.32Z</time></trkpt><trkpt lat="40.6761083" lon="-3.3867817"><ele>783.0</ele><time>2026-03-28T17:14:11.321Z</time></trkpt><trkpt lat="40.6758917" lon="-3.3869367"><ele>781.0</ele><time>2026-03-28T17:14:12.321Z</time></trkpt><trkpt lat="40.67566" lon="-3.387115"><ele>780.0</ele><time>2026-03-28T17:14:13.321Z</time></trkpt><trkpt lat="40.6754283" lon="-3.38729"><ele>779.0</ele><time>2026-03-28T17:14:14.321Z</time></trkpt><trkpt lat="40.6752117" lon="-3.3874567"><ele>776.5</ele><time>2026-03-28T17:14:15.321Z</time></trkpt><trkpt lat="40.6750083" lon="-3.3876133"><ele>774.0</ele><time>2026-03-28T17:14:16.32Z</time></trkpt><trkpt lat="40.6748133" lon="-3.3877633"><ele>774.0</ele><time>2026-03-28T17:14:17.321Z</time></trkpt><trkpt lat="40.6746133" lon="-3.3879067"><ele>774.0</ele><time>2026-03-28T17:14:18.32Z</time></trkpt><trkpt lat="40.6744217" lon="-3.388055"><ele>773.6666666666667</ele><time>2026-03-28T17:14:19.321Z</time></trkpt><trkpt lat="40.6742317" lon="-3.38819"><ele>773.3333333333334</ele><time>2026-03-28T17:14:20.321Z</time></trkpt><trkpt lat="40.6740383" lon="-3.3882983"><ele>773.0</ele><time>2026-03-28T17:14:21.321Z</time></trkpt><trkpt lat="40.6738367" lon="-3.3883683"><ele>773.0</ele><time>2026-03-28T17:14:22.321Z</time></trkpt><trkpt lat="40.6736083" lon="-3.3884267"><ele>773.0</ele><time>2026-03-28T17:14:23.321Z</time></trkpt><trkpt lat="40.6733767" lon="-3.3884833"><ele>771.3333333333334</ele><time>2026-03-28T17:14:24.321Z</time></trkpt><trkpt lat="40.6731533" lon="-3.3885483"><ele>769.6666666666667</ele><time>2026-03-28T17:14:25.321Z</time></trkpt><trkpt lat="40.6729517" lon="-3.388605"><ele>768.0</ele><time>2026-03-28T17:14:26.321Z</time></trkpt><trkpt lat="40.6727667" lon="-3.38866"><ele>767.75</ele><time>2026-03-28T17:14:27.321Z</time></trkpt><trkpt lat="40.672625" lon="-3.3887017"><ele>767.5</ele><time>2026-03-28T17:14:28.32Z</time></trkpt><trkpt lat="40.672505" lon="-3.38875"><ele>767.25</ele><time>2026-03-28T17:14:29.321Z</time></trkpt><trkpt lat="40.6723883" lon="-3.3887767"><ele>767.0</ele><time>2026-03-28T17:14:30.321Z</time></trkpt><trkpt lat="40.672265" lon="-3.3888067"><ele>766.6666666666666</ele><time>2026-03-28T17:14:31.321Z</time></trkpt><trkpt lat="40.67211" lon="-3.3888433"><ele>766.3333333333334</ele><time>2026-03-28T17:14:32.321Z</time></trkpt><trkpt lat="40.6719417" lon="-3.3888917"><ele>766.0</ele><time>2026-03-28T17:14:33.321Z</time></trkpt><trkpt lat="40.6717633" lon="-3.3889433"><ele>766.0</ele><time>2026-03-28T17:14:34.321Z</time></trkpt><trkpt lat="40.671595" lon="-3.3889933"><ele>766.0</ele><time>2026-03-28T17:14:35.32Z</time></trkpt><trkpt lat="40.6714367" lon="-3.389045"><ele>766.0</ele><time>2026-03-28T17:14:36.321Z</time></trkpt><trkpt lat="40.67128" lon="-3.38909"><ele>766.0</ele><time>2026-03-28T17:14:37.32Z</time></trkpt><trkpt lat="40.6711317" lon="-3.389135"><ele>766.0</ele><time>2026-03-28T17:14:38.32Z</time></trkpt><trkpt lat="40.67099" lon="-3.3891817"><ele>766.0</ele><time>2026-03-28T17:14:39.321Z</time></trkpt><trkpt lat="40.6708717" lon="-3.389225"><ele>766.0</ele><time>2026-03-28T17:14:40.321Z</time></trkpt><trkpt lat="40.6707483" lon="-3.389265"><ele>765.0</ele><time>2026-03-28T17:14:41.321Z</time></trkpt><trkpt lat="40.6705967" lon="-3.3893133"><ele>764.0</ele><time>2026-03-28T17:14:42.32Z</time></trkpt><trkpt lat="40.6704017" lon="-3.38937"><ele>763.0</ele><time>2026-03-28T17:14:43.321Z</time></trkpt><trkpt lat="40.67017" lon="-3.3894317"><ele>761.5</ele><time>2026-03-28T17:14:44.321Z</time></trkpt><trkpt lat="40.66993" lon="-3.3895"><ele>760.0</ele><time>2026-03-28T17:14:45.321Z</time></trkpt><trkpt lat="40.6696767" lon="-3.3895867"><ele>760.5</ele><time>2026-03-28T17:14:46.321Z</time></trkpt><trkpt lat="40.6694" lon="-3.3896817"><ele>761.0</ele><time>2026-03-28T17:14:47.32Z</time></trkpt><trkpt lat="40.6691367" lon="-3.3897783"><ele>761.0</ele><time>2026-03-28T17:14:48.32Z</time></trkpt><trkpt lat="40.6689017" lon="-3.3898667"><ele>761.0</ele><time>2026-03-28T17:14:49.321Z</time></trkpt><trkpt lat="40.668685" lon="-3.3899467"><ele>759.6666666666666</ele><time>2026-03-28T17:14:50.321Z</time></trkpt><trkpt lat="40.6684967" lon="-3.3900267"><ele>758.3333333333334</ele><time>2026-03-28T17:14:51.321Z</time></trkpt><trkpt lat="40.6683433" lon="-3.3900867"><ele>757.0</ele><time>2026-03-28T17:14:52.321Z</time></trkpt><trkpt lat="40.6682133" lon="-3.3901533"><ele>757.0</ele><time>2026-03-28T17:14:53.32Z</time></trkpt><trkpt lat="40.6681" lon="-3.3902033"><ele>757.0</ele><time>2026-03-28T17:14:54.321Z</time></trkpt><trkpt lat="40.6679733" lon="-3.390255"><ele>757.0</ele><time>2026-03-28T17:14:55.321Z</time></trkpt><trkpt lat="40.6678117" lon="-3.3903183"><ele>757.0</ele><time>2026-03-28T17:14:56.321Z</time></trkpt><trkpt lat="40.6676333" lon="-3.3903817"><ele>757.3333333333334</ele><time>2026-03-28T17:14:57.321Z</time></trkpt><trkpt lat="40.6674517" lon="-3.3904383"><ele>757.6666666666666</ele><time>2026-03-28T17:14:58.321Z</time></trkpt><trkpt lat="40.6672917" lon="-3.390495"><ele>758.0</ele><time>2026-03-28T17:14:59.321Z</time></trkpt><trkpt lat="40.6671317" lon="-3.390545"><ele>758.0</ele><time>2026-03-28T17:15:00.321Z</time></trkpt><trkpt lat="40.666985" lon="-3.3906067"><ele>758.0</ele><time>2026-03-28T17:15:01.321Z</time></trkpt><trkpt lat="40.6668617" lon="-3.3906517"><ele>758.0</ele><time>2026-03-28T17:15:02.321Z</time></trkpt><trkpt lat="40.6667367" lon="-3.3906983"><ele>758.0</ele><time>2026-03-28T17:15:03.321Z</time></trkpt><trkpt lat="40.6666033" lon="-3.3907583"><ele>757.0</ele><time>2026-03-28T17:15:04.32Z</time></trkpt><trkpt lat="40.666435" lon="-3.39083"><ele>756.0</ele><time>2026-03-28T17:15:05.321Z</time></trkpt><trkpt lat="40.6662467" lon="-3.3909117"><ele>755.0</ele><time>2026-03-28T17:15:06.321Z</time></trkpt><trkpt lat="40.6660767" lon="-3.3909833"><ele>755.0</ele><time>2026-03-28T17:15:07.32Z</time></trkpt><trkpt lat="40.665925" lon="-3.391035"><ele>755.0</ele><time>2026-03-28T17:15:08.321Z</time></trkpt><trkpt lat="40.6657583" lon="-3.391085"><ele>755.0</ele><time>2026-03-28T17:15:09.32Z</time></trkpt><trkpt lat="40.6655883" lon="-3.3911233"><ele>755.0</ele><time>2026-03-28T17:15:10.321Z</time></trkpt><trkpt lat="40.6654267" lon="-3.3911667"><ele>755.0</ele><time>2026-03-28T17:15:11.32Z</time></trkpt><trkpt lat="40.66528" lon="-3.3911967"><ele>755.0</ele><time>2026-03-28T17:15:12.32Z</time></trkpt><trkpt lat="40.6651617" lon="-3.3912267"><ele>755.0</ele><time>2026-03-28T17:15:13.32Z</time></trkpt><trkpt lat="40.6650417" lon="-3.391255"><ele>754.3333333333333</ele><time>2026-03-28T17:15:14.321Z</time></trkpt><trkpt lat="40.6648933" lon="-3.3912917"><ele>753.6666666666666</ele><time>2026-03-28T17:15:15.32Z</time></trkpt><trkpt lat="40.6647117" lon="-3.3913417"><ele>753.0</ele><time>2026-03-28T17:15:16.321Z</time></trkpt><trkpt lat="40.6645317" lon="-3.391385"><ele>751.0</ele><time>2026-03-28T17:15:17.321Z</time></trkpt><trkpt lat="40.6643733" lon="-3.3913967"><ele>749.0</ele><time>2026-03-28T17:15:18.321Z</time></trkpt><trkpt lat="40.6642017" lon="-3.3913833"><ele>747.0</ele><time>2026-03-28T17:15:19.321Z</time></trkpt><trkpt lat="40.6640267" lon="-3.3913467"><ele>746.0</ele><time>2026-03-28T17:15:20.321Z</time></trkpt><trkpt lat="40.6638633" lon="-3.3912883"><ele>745.0</ele><time>2026-03-28T17:15:21.321Z</time></trkpt><trkpt lat="40.6637167" lon="-3.3912367"><ele>744.0</ele><time>2026-03-28T17:15:22.321Z</time></trkpt><trkpt lat="40.6635883" lon="-3.3911883"><ele>743.2</ele><time>2026-03-28T17:15:23.321Z</time></trkpt><trkpt lat="40.6634767" lon="-3.3911583"><ele>742.4000000000001</ele><time>2026-03-28T17:15:24.321Z</time></trkpt><trkpt lat="40.6633783" lon="-3.3911267"><ele>741.6</ele><time>2026-03-28T17:15:25.321Z</time></trkpt><trkpt lat="40.6632717" lon="-3.3910917"><ele>740.8</ele><time>2026-03-28T17:15:26.32Z</time></trkpt><trkpt lat="40.6631617" lon="-3.3910567"><ele>740.0</ele><time>2026-03-28T17:15:27.321Z</time></trkpt><trkpt lat="40.6630433" lon="-3.3910267"><ele>740.0</ele><time>2026-03-28T17:15:28.32Z</time></trkpt><trkpt lat="40.6629383" lon="-3.3909917"><ele>740.0</ele><time>2026-03-28T17:15:29.321Z</time></trkpt><trkpt lat="40.662845" lon="-3.390955"><ele>740.0</ele><time>2026-03-28T17:15:30.321Z</time></trkpt><trkpt lat="40.6627583" lon="-3.3909233"><ele>740.0</ele><time>2026-03-28T17:15:31.321Z</time></trkpt><trkpt lat="40.662685" lon="-3.3908967"><ele>740.0</ele><time>2026-03-28T17:15:32.32Z</time></trkpt><trkpt lat="40.6625583" lon="-3.3908667"><ele>739.5</ele><time>2026-03-28T17:15:34.321Z</time></trkpt><trkpt lat="40.662485" lon="-3.3908467"><ele>739.0</ele><time>2026-03-28T17:15:35.321Z</time></trkpt><trkpt lat="40.66241" lon="-3.3908167"><ele>738.5</ele><time>2026-03-28T17:15:36.321Z</time></trkpt><trkpt lat="40.6623367" lon="-3.390795"><ele>738.0</ele><time>2026-03-28T17:15:37.32Z</time></trkpt><trkpt lat="40.6622517" lon="-3.3907717"><ele>737.5</ele><time>2026-03-28T17:15:38.321Z</time></trkpt><trkpt lat="40.6621583" lon="-3.3907467"><ele>737.0</ele><time>2026-03-28T17:15:39.321Z</time></trkpt><trkpt lat="40.6620517" lon="-3.3907333"><ele>737.0</ele><time>2026-03-28T17:15:40.321Z</time></trkpt><trkpt lat="40.6619517" lon="-3.390735"><ele>737.0</ele><time>2026-03-28T17:15:41.321Z</time></trkpt><trkpt lat="40.6618583" lon="-3.3907417"><ele>737.0</ele><time>2026-03-28T17:15:42.321Z</time></trkpt><trkpt lat="40.6617767" lon="-3.39074"><ele>737.0</ele><time>2026-03-28T17:15:43.321Z</time></trkpt><trkpt lat="40.6617117" lon="-3.39072"><ele>737.0</ele><time>2026-03-28T17:15:44.321Z</time></trkpt><trkpt lat="40.66159" lon="-3.39066"><ele>736.8333333333333</ele><time>2026-03-28T17:15:46.321Z</time></trkpt><trkpt lat="40.6615283" lon="-3.39062"><ele>736.6666666666666</ele><time>2026-03-28T17:15:47.32Z</time></trkpt><trkpt lat="40.6614683" lon="-3.39058"><ele>736.5</ele><time>2026-03-28T17:15:48.321Z</time></trkpt><trkpt lat="40.6614017" lon="-3.390545"><ele>736.3333333333334</ele><time>2026-03-28T17:15:49.321Z</time></trkpt><trkpt lat="40.6613367" lon="-3.3905133"><ele>736.1666666666667</ele><time>2026-03-28T17:15:50.321Z</time></trkpt><trkpt lat="40.6612367" lon="-3.390445"><ele>736.0</ele><time>2026-03-28T17:15:52.321Z</time></trkpt><trkpt lat="40.6611383" lon="-3.3904167"><ele>735.4</ele><time>2026-03-28T17:19:46.319Z</time></trkpt><trkpt lat="40.661055" lon="-3.390315"><ele>734.8</ele><time>2026-03-28T17:19:48.32Z</time></trkpt><trkpt lat="40.6610017" lon="-3.3902667"><ele>734.1999999999999</ele><time>2026-03-28T17:19:49.319Z</time></trkpt><trkpt lat="40.6609467" lon="-3.3902033"><ele>733.5999999999999</ele><time>2026-03-28T17:19:50.319Z</time></trkpt><trkpt lat="40.6608767" lon="-3.39013"><ele>733.0</ele><time>2026-03-28T17:19:51.32Z</time></trkpt><trkpt lat="40.660785" lon="-3.390045"><ele>733.0</ele><time>2026-03-28T17:19:52.319Z</time></trkpt><trkpt lat="40.6606817" lon="-3.3899667"><ele>733.0</ele><time>2026-03-28T17:19:53.319Z</time></trkpt><trkpt lat="40.6605883" lon="-3.3898917"><ele>733.0</ele><time>2026-03-28T17:19:54.32Z</time></trkpt><trkpt lat="40.6604933" lon="-3.3898133"><ele>733.0</ele><time>2026-03-28T17:19:55.319Z</time></trkpt><trkpt lat="40.6604017" lon="-3.38973"><ele>732.8333333333334</ele><time>2026-03-28T17:19:56.319Z</time></trkpt><trkpt lat="40.6603267" lon="-3.38966"><ele>732.6666666666667</ele><time>2026-03-28T17:19:57.319Z</time></trkpt><trkpt lat="40.660255" lon="-3.3896"><ele>732.5</ele><time>2026-03-28T17:19:58.32Z</time></trkpt><trkpt lat="40.6601817" lon="-3.3895367"><ele>732.3333333333334</ele><time>2026-03-28T17:19:59.319Z</time></trkpt><trkpt lat="40.66011" lon="-3.3894833"><ele>732.1666666666666</ele><time>2026-03-28T17:20:00.319Z</time></trkpt><trkpt lat="40.66003" lon="-3.3894233"><ele>732.0</ele><time>2026-03-28T17:20:01.319Z</time></trkpt><trkpt lat="40.6599567" lon="-3.3893633"><ele>732.0</ele><time>2026-03-28T17:20:02.32Z</time></trkpt><trkpt lat="40.6598833" lon="-3.3893017"><ele>732.0</ele><time>2026-03-28T17:20:03.319Z</time></trkpt><trkpt lat="40.6598117" lon="-3.389245"><ele>732.0</ele><time>2026-03-28T17:20:04.319Z</time></trkpt><trkpt lat="40.6597483" lon="-3.38919"><ele>732.0</ele><time>2026-03-28T17:20:05.319Z</time></trkpt><trkpt lat="40.659675" lon="-3.3891283"><ele>732.0</ele><time>2026-03-28T17:20:06.319Z</time></trkpt><trkpt lat="40.6595883" lon="-3.3890533"><ele>732.0</ele><time>2026-03-28T17:20:07.32Z</time></trkpt><trkpt lat="40.6595" lon="-3.3889733"><ele>731.8</ele><time>2026-03-28T17:20:08.32Z</time></trkpt><trkpt lat="40.65941" lon="-3.3888833"><ele>731.6</ele><time>2026-03-28T17:20:09.319Z</time></trkpt><trkpt lat="40.6593183" lon="-3.3887967"><ele>731.4</ele><time>2026-03-28T17:20:10.32Z</time></trkpt><trkpt lat="40.6592283" lon="-3.3887117"><ele>731.1999999999999</ele><time>2026-03-28T17:20:11.32Z</time></trkpt><trkpt lat="40.6591467" lon="-3.3886217"><ele>731.0</ele><time>2026-03-28T17:20:12.32Z</time></trkpt><trkpt lat="40.65907" lon="-3.38853"><ele>732.5</ele><time>2026-03-28T17:20:13.32Z</time></trkpt><trkpt lat="40.6589817" lon="-3.3884233"><ele>734.0</ele><time>2026-03-28T17:20:14.32Z</time></trkpt><trkpt lat="40.6589033" lon="-3.3883067"><ele>735.5</ele><time>2026-03-28T17:20:15.32Z</time></trkpt><trkpt lat="40.6588317" lon="-3.3881917"><ele>737.0</ele><time>2026-03-28T17:20:16.319Z</time></trkpt><trkpt lat="40.6587567" lon="-3.38808"><ele>737.5</ele><time>2026-03-28T17:20:17.32Z</time></trkpt><trkpt lat="40.658685" lon="-3.3879667"><ele>738.0</ele><time>2026-03-28T17:20:18.32Z</time></trkpt><trkpt lat="40.658615" lon="-3.3878517"><ele>738.5</ele><time>2026-03-28T17:20:19.32Z</time></trkpt><trkpt lat="40.65854" lon="-3.3877433"><ele>739.0</ele><time>2026-03-28T17:20:20.32Z</time></trkpt><trkpt lat="40.6584567" lon="-3.387635"><ele>739.0</ele><time>2026-03-28T17:20:21.319Z</time></trkpt><trkpt lat="40.6583833" lon="-3.3875367"><ele>739.0</ele><time>2026-03-28T17:20:22.32Z</time></trkpt><trkpt lat="40.6583" lon="-3.3874317"><ele>739.0</ele><time>2026-03-28T17:20:23.32Z</time></trkpt><trkpt lat="40.6582167" lon="-3.3873117"><ele>739.0</ele><time>2026-03-28T17:20:24.32Z</time></trkpt><trkpt lat="40.65813" lon="-3.3871917"><ele>738.5</ele><time>2026-03-28T17:20:25.32Z</time></trkpt><trkpt lat="40.6580483" lon="-3.3870733"><ele>738.0</ele><time>2026-03-28T17:20:26.319Z</time></trkpt><trkpt lat="40.6579733" lon="-3.38697"><ele>737.5</ele><time>2026-03-28T17:20:27.32Z</time></trkpt><trkpt lat="40.6578983" lon="-3.3868683"><ele>737.0</ele><time>2026-03-28T17:20:28.319Z</time></trkpt><trkpt lat="40.6578183" lon="-3.3867617"><ele>736.2</ele><time>2026-03-28T17:20:29.32Z</time></trkpt><trkpt lat="40.65774" lon="-3.3866533"><ele>735.4000000000001</ele><time>2026-03-28T17:20:30.32Z</time></trkpt><trkpt lat="40.6576683" lon="-3.3865533"><ele>734.5999999999999</ele><time>2026-03-28T17:20:31.32Z</time></trkpt><trkpt lat="40.657595" lon="-3.386445"><ele>733.8</ele><time>2026-03-28T17:20:32.32Z</time></trkpt><trkpt lat="40.657525" lon="-3.3863467"><ele>733.0</ele><time>2026-03-28T17:20:33.319Z</time></trkpt><trkpt lat="40.657445" lon="-3.386245"><ele>732.5</ele><time>2026-03-28T17:20:34.32Z</time></trkpt><trkpt lat="40.6573667" lon="-3.3861433"><ele>732.0</ele><time>2026-03-28T17:20:35.32Z</time></trkpt><trkpt lat="40.657285" lon="-3.3860383"><ele>731.5</ele><time>2026-03-28T17:20:36.32Z</time></trkpt><trkpt lat="40.6572" lon="-3.3859317"><ele>731.0</ele><time>2026-03-28T17:20:37.32Z</time></trkpt><trkpt lat="40.6571217" lon="-3.38582"><ele>731.0</ele><time>2026-03-28T17:20:38.32Z</time></trkpt><trkpt lat="40.6570417" lon="-3.3857117"><ele>731.0</ele><time>2026-03-28T17:20:39.32Z</time></trkpt><trkpt lat="40.6569617" lon="-3.3856"><ele>731.0</ele><time>2026-03-28T17:20:40.32Z</time></trkpt><trkpt lat="40.6568783" lon="-3.3854833"><ele>731.0</ele><time>2026-03-28T17:20:41.32Z</time></trkpt><trkpt lat="40.6567967" lon="-3.385365"><ele>730.25</ele><time>2026-03-28T17:20:42.32Z</time></trkpt><trkpt lat="40.6567167" lon="-3.38525"><ele>729.5</ele><time>2026-03-28T17:20:43.32Z</time></trkpt><trkpt lat="40.65664" lon="-3.385135"><ele>728.75</ele><time>2026-03-28T17:20:44.32Z</time></trkpt><trkpt lat="40.65656" lon="-3.38502"><ele>728.0</ele><time>2026-03-28T17:20:45.32Z</time></trkpt><trkpt lat="40.6564783" lon="-3.3849067"><ele>728.0</ele><time>2026-03-28T17:20:46.319Z</time></trkpt><trkpt lat="40.6564067" lon="-3.384805"><ele>728.0</ele><time>2026-03-28T17:20:47.319Z</time></trkpt><trkpt lat="40.6563367" lon="-3.38471"><ele>728.0</ele><time>2026-03-28T17:20:48.32Z</time></trkpt><trkpt lat="40.6562533" lon="-3.3845983"><ele>728.0</ele><time>2026-03-28T17:20:49.32Z</time></trkpt><trkpt lat="40.6561617" lon="-3.3844783"><ele>726.75</ele><time>2026-03-28T17:20:50.32Z</time></trkpt><trkpt lat="40.6560783" lon="-3.38436"><ele>725.5</ele><time>2026-03-28T17:20:51.32Z</time></trkpt><trkpt lat="40.656" lon="-3.38425"><ele>724.25</ele><time>2026-03-28T17:20:52.32Z</time></trkpt><trkpt lat="40.6559217" lon="-3.38414"><ele>723.0</ele><time>2026-03-28T17:20:53.32Z</time></trkpt><trkpt lat="40.6558333" lon="-3.3840217"><ele>723.0</ele><time>2026-03-28T17:20:54.32Z</time></trkpt><trkpt lat="40.6557417" lon="-3.3838967"><ele>723.0</ele><time>2026-03-28T17:20:55.32Z</time></trkpt><trkpt lat="40.65565" lon="-3.3837733"><ele>723.0</ele><time>2026-03-28T17:20:56.319Z</time></trkpt><trkpt lat="40.65556" lon="-3.3836483"><ele>723.0</ele><time>2026-03-28T17:20:57.32Z</time></trkpt><trkpt lat="40.655475" lon="-3.38353"><ele>722.5</ele><time>2026-03-28T17:20:58.32Z</time></trkpt><trkpt lat="40.6553867" lon="-3.3834083"><ele>722.0</ele><time>2026-03-28T17:20:59.32Z</time></trkpt><trkpt lat="40.6552967" lon="-3.38329"><ele>721.5</ele><time>2026-03-28T17:21:00.32Z</time></trkpt><trkpt lat="40.6552083" lon="-3.3831733"><ele>721.0</ele><time>2026-03-28T17:21:01.32Z</time></trkpt><trkpt lat="40.6551183" lon="-3.3830533"><ele>720.5</ele><time>2026-03-28T17:21:02.32Z</time></trkpt><trkpt lat="40.6550283" lon="-3.3829333"><ele>720.0</ele><time>2026-03-28T17:21:03.32Z</time></trkpt><trkpt lat="40.6549417" lon="-3.3828183"><ele>719.5</ele><time>2026-03-28T17:21:04.32Z</time></trkpt><trkpt lat="40.6548583" lon="-3.3827067"><ele>719.0</ele><time>2026-03-28T17:21:05.32Z</time></trkpt><trkpt lat="40.6547783" lon="-3.3825917"><ele>719.0</ele><time>2026-03-28T17:21:06.32Z</time></trkpt><trkpt lat="40.6547083" lon="-3.3824933"><ele>719.0</ele><time>2026-03-28T17:21:07.319Z</time></trkpt><trkpt lat="40.6546383" lon="-3.382395"><ele>719.0</ele><time>2026-03-28T17:21:08.32Z</time></trkpt><trkpt lat="40.6545617" lon="-3.38229"><ele>719.0</ele><time>2026-03-28T17:21:09.32Z</time></trkpt><trkpt lat="40.65448" lon="-3.3821733"><ele>719.0</ele><time>2026-03-28T17:21:10.32Z</time></trkpt><trkpt lat="40.6543933" lon="-3.38206"><ele>717.75</ele><time>2026-03-28T17:21:11.32Z</time></trkpt><trkpt lat="40.6543067" lon="-3.3819433"><ele>716.5</ele><time>2026-03-28T17:21:12.32Z</time></trkpt><trkpt lat="40.654215" lon="-3.38182"><ele>715.25</ele><time>2026-03-28T17:21:13.32Z</time></trkpt><trkpt lat="40.6541233" lon="-3.3816917"><ele>714.0</ele><time>2026-03-28T17:21:14.32Z</time></trkpt><trkpt lat="40.6540233" lon="-3.3815667"><ele>714.0</ele><time>2026-03-28T17:21:15.32Z</time></trkpt><trkpt lat="40.6539183" lon="-3.3814267"><ele>714.0</ele><time>2026-03-28T17:21:16.32Z</time></trkpt><trkpt lat="40.6538033" lon="-3.3812717"><ele>714.0</ele><time>2026-03-28T17:21:17.32Z</time></trkpt><trkpt lat="40.6537" lon="-3.38113"><ele>713.5</ele><time>2026-03-28T17:21:18.319Z</time></trkpt><trkpt lat="40.6536083" lon="-3.3809983"><ele>713.0</ele><time>2026-03-28T17:21:19.32Z</time></trkpt><trkpt lat="40.6535067" lon="-3.3808617"><ele>712.5</ele><time>2026-03-28T17:21:20.319Z</time></trkpt><trkpt lat="40.6534017" lon="-3.380715"><ele>712.0</ele><time>2026-03-28T17:21:21.32Z</time></trkpt><trkpt lat="40.6533033" lon="-3.3805783"><ele>712.0</ele><time>2026-03-28T17:21:22.319Z</time></trkpt><trkpt lat="40.6532117" lon="-3.3804517"><ele>712.0</ele><time>2026-03-28T17:21:23.32Z</time></trkpt><trkpt lat="40.6531283" lon="-3.3803233"><ele>712.0</ele><time>2026-03-28T17:21:24.32Z</time></trkpt><trkpt lat="40.6530467" lon="-3.3802133"><ele>712.0</ele><time>2026-03-28T17:21:25.319Z</time></trkpt><trkpt lat="40.6529683" lon="-3.380105"><ele>712.0</ele><time>2026-03-28T17:21:26.32Z</time></trkpt><trkpt lat="40.6528933" lon="-3.3800033"><ele>712.0</ele><time>2026-03-28T17:21:27.32Z</time></trkpt><trkpt lat="40.6528283" lon="-3.379915"><ele>712.0</ele><time>2026-03-28T17:21:28.32Z</time></trkpt><trkpt lat="40.6527717" lon="-3.379825"><ele>712.0</ele><time>2026-03-28T17:21:29.32Z</time></trkpt><trkpt lat="40.6527183" lon="-3.3797467"><ele>712.0</ele><time>2026-03-28T17:21:30.32Z</time></trkpt><trkpt lat="40.65266" lon="-3.3796617"><ele>712.0</ele><time>2026-03-28T17:21:31.32Z</time></trkpt><trkpt lat="40.652595" lon="-3.37957"><ele>712.0</ele><time>2026-03-28T17:21:32.319Z</time></trkpt><trkpt lat="40.652535" lon="-3.3794917"><ele>712.0</ele><time>2026-03-28T17:21:33.32Z</time></trkpt><trkpt lat="40.6524817" lon="-3.3794183"><ele>712.0</ele><time>2026-03-28T17:21:34.32Z</time></trkpt><trkpt lat="40.65243" lon="-3.3793367"><ele>712.0</ele><time>2026-03-28T17:21:35.319Z</time></trkpt><trkpt lat="40.6523783" lon="-3.379265"><ele>712.0</ele><time>2026-03-28T17:21:36.32Z</time></trkpt><trkpt lat="40.6523283" lon="-3.37919"><ele>712.0</ele><time>2026-03-28T17:21:37.32Z</time></trkpt><trkpt lat="40.6522733" lon="-3.3791083"><ele>712.0</ele><time>2026-03-28T17:21:38.32Z</time></trkpt><trkpt lat="40.6522133" lon="-3.37903"><ele>712.0</ele><time>2026-03-28T17:21:39.32Z</time></trkpt><trkpt lat="40.6521517" lon="-3.3789433"><ele>712.0</ele><time>2026-03-28T17:21:40.32Z</time></trkpt><trkpt lat="40.6520783" lon="-3.3788533"><ele>712.0</ele><time>2026-03-28T17:21:41.32Z</time></trkpt><trkpt lat="40.652" lon="-3.3787467"><ele>711.75</ele><time>2026-03-28T17:21:42.32Z</time></trkpt><trkpt lat="40.6519183" lon="-3.3786367"><ele>711.5</ele><time>2026-03-28T17:21:43.32Z</time></trkpt><trkpt lat="40.6518483" lon="-3.3785367"><ele>711.25</ele><time>2026-03-28T17:21:44.32Z</time></trkpt><trkpt lat="40.65177" lon="-3.378435"><ele>711.0</ele><time>2026-03-28T17:21:45.32Z</time></trkpt><trkpt lat="40.651675" lon="-3.3783117"><ele>711.0</ele><time>2026-03-28T17:21:46.319Z</time></trkpt><trkpt lat="40.6515867" lon="-3.3781917"><ele>711.0</ele><time>2026-03-28T17:21:47.32Z</time></trkpt><trkpt lat="40.6515083" lon="-3.3780833"><ele>711.0</ele><time>2026-03-28T17:21:48.319Z</time></trkpt><trkpt lat="40.6514167" lon="-3.3779767"><ele>711.0</ele><time>2026-03-28T17:21:49.32Z</time></trkpt><trkpt lat="40.6513267" lon="-3.3778567"><ele>710.5</ele><time>2026-03-28T17:21:50.32Z</time></trkpt><trkpt lat="40.651225" lon="-3.3777133"><ele>710.0</ele><time>2026-03-28T17:21:51.32Z</time></trkpt><trkpt lat="40.6511283" lon="-3.377575"><ele>709.5</ele><time>2026-03-28T17:21:52.32Z</time></trkpt><trkpt lat="40.6510417" lon="-3.3774533"><ele>709.0</ele><time>2026-03-28T17:21:53.319Z</time></trkpt><trkpt lat="40.6509667" lon="-3.3773433"><ele>708.8000000000001</ele><time>2026-03-28T17:21:54.32Z</time></trkpt><trkpt lat="40.6508933" lon="-3.3772467"><ele>708.6</ele><time>2026-03-28T17:21:55.32Z</time></trkpt><trkpt lat="40.65082" lon="-3.3771467"><ele>708.4</ele><time>2026-03-28T17:21:56.32Z</time></trkpt><trkpt lat="40.6507517" lon="-3.377055"><ele>708.2</ele><time>2026-03-28T17:21:57.32Z</time></trkpt><trkpt lat="40.6506867" lon="-3.3769733"><ele>708.0</ele><time>2026-03-28T17:21:58.319Z</time></trkpt><trkpt lat="40.6506233" lon="-3.376885"><ele>708.0</ele><time>2026-03-28T17:21:59.32Z</time></trkpt><trkpt lat="40.6505567" lon="-3.3767867"><ele>708.0</ele><time>2026-03-28T17:22:00.32Z</time></trkpt><trkpt lat="40.6504867" lon="-3.3766933"><ele>708.0</ele><time>2026-03-28T17:22:01.32Z</time></trkpt><trkpt lat="40.6504083" lon="-3.3765867"><ele>708.0</ele><time>2026-03-28T17:22:02.319Z</time></trkpt><trkpt lat="40.6503267" lon="-3.37647"><ele>708.0</ele><time>2026-03-28T17:22:03.32Z</time></trkpt><trkpt lat="40.6502433" lon="-3.37636"><ele>708.2</ele><time>2026-03-28T17:22:04.32Z</time></trkpt><trkpt lat="40.6501717" lon="-3.3762633"><ele>708.4</ele><time>2026-03-28T17:22:05.319Z</time></trkpt><trkpt lat="40.65011" lon="-3.3761717"><ele>708.6</ele><time>2026-03-28T17:22:06.32Z</time></trkpt><trkpt lat="40.6500483" lon="-3.3760917"><ele>708.8000000000001</ele><time>2026-03-28T17:22:07.32Z</time></trkpt><trkpt lat="40.6499883" lon="-3.3760117"><ele>709.0</ele><time>2026-03-28T17:22:08.32Z</time></trkpt><trkpt lat="40.6499233" lon="-3.3759133"><ele>709.0</ele><time>2026-03-28T17:22:09.32Z</time></trkpt><trkpt lat="40.64985" lon="-3.3758083"><ele>709.0</ele><time>2026-03-28T17:22:10.319Z</time></trkpt><trkpt lat="40.649775" lon="-3.3757033"><ele>709.0</ele><time>2026-03-28T17:22:11.32Z</time></trkpt><trkpt lat="40.6497067" lon="-3.3755983"><ele>709.0</ele><time>2026-03-28T17:22:12.32Z</time></trkpt><trkpt lat="40.64964" lon="-3.3754933"><ele>709.0</ele><time>2026-03-28T17:22:13.32Z</time></trkpt><trkpt lat="40.6495717" lon="-3.3753717"><ele>708.25</ele><time>2026-03-28T17:22:14.32Z</time></trkpt><trkpt lat="40.6494917" lon="-3.3752317"><ele>707.5</ele><time>2026-03-28T17:22:15.32Z</time></trkpt><trkpt lat="40.649415" lon="-3.375085"><ele>706.75</ele><time>2026-03-28T17:22:16.319Z</time></trkpt><trkpt lat="40.649345" lon="-3.3749467"><ele>706.0</ele><time>2026-03-28T17:22:17.32Z</time></trkpt><trkpt lat="40.64928" lon="-3.3748133"><ele>705.6666666666667</ele><time>2026-03-28T17:22:18.32Z</time></trkpt><trkpt lat="40.649225" lon="-3.374695"><ele>705.3333333333334</ele><time>2026-03-28T17:22:19.319Z</time></trkpt><trkpt lat="40.6491783" lon="-3.3745933"><ele>705.0</ele><time>2026-03-28T17:22:20.319Z</time></trkpt><trkpt lat="40.64914" lon="-3.37451"><ele>704.6666666666666</ele><time>2026-03-28T17:22:21.32Z</time></trkpt><trkpt lat="40.6491067" lon="-3.3744367"><ele>704.3333333333333</ele><time>2026-03-28T17:22:22.32Z</time></trkpt><trkpt lat="40.6490617" lon="-3.3743283"><ele>704.0</ele><time>2026-03-28T17:22:24.32Z</time></trkpt><trkpt lat="40.6490217" lon="-3.3742317"><ele>703.1666666666666</ele><time>2026-03-28T17:22:26.319Z</time></trkpt><trkpt lat="40.648985" lon="-3.3741517"><ele>702.3333333333333</ele><time>2026-03-28T17:22:28.32Z</time></trkpt><trkpt lat="40.6489367" lon="-3.3740667"><ele>701.5</ele><time>2026-03-28T17:22:30.32Z</time></trkpt><trkpt lat="40.648885" lon="-3.3739883"><ele>700.6666666666666</ele><time>2026-03-28T17:22:32.319Z</time></trkpt><trkpt lat="40.648825" lon="-3.3739133"><ele>699.8333333333334</ele><time>2026-03-28T17:22:34.319Z</time></trkpt><trkpt lat="40.6487633" lon="-3.373875"><ele>699.0</ele><time>2026-03-28T17:22:36.32Z</time></trkpt><trkpt lat="40.648665" lon="-3.373825"><ele>697.8333333333334</ele><time>2026-03-28T17:22:38.32Z</time></trkpt><trkpt lat="40.64856" lon="-3.3737867"><ele>696.6666666666666</ele><time>2026-03-28T17:22:40.32Z</time></trkpt><trkpt lat="40.648465" lon="-3.3737517"><ele>695.5</ele><time>2026-03-28T17:22:42.32Z</time></trkpt><trkpt lat="40.6483933" lon="-3.3737167"><ele>694.3333333333333</ele><time>2026-03-28T17:22:44.32Z</time></trkpt><trkpt lat="40.64833" lon="-3.3736583"><ele>693.1666666666666</ele><time>2026-03-28T17:22:46.319Z</time></trkpt><trkpt lat="40.64828" lon="-3.3735933"><ele>692.0</ele><time>2026-03-28T17:22:48.319Z</time></trkpt><trkpt lat="40.6482317" lon="-3.373525"><ele>692.0</ele><time>2026-03-28T17:22:50.32Z</time></trkpt><trkpt lat="40.648185" lon="-3.373455"><ele>692.0</ele><time>2026-03-28T17:22:52.32Z</time></trkpt><trkpt lat="40.6481217" lon="-3.3734167"><ele>692.0</ele><time>2026-03-28T17:22:54.319Z</time></trkpt><trkpt lat="40.6480333" lon="-3.3734"><ele>692.0</ele><time>2026-03-28T17:22:56.319Z</time></trkpt><trkpt lat="40.6479517" lon="-3.3734033"><ele>692.0</ele><time>2026-03-28T17:22:58.32Z</time></trkpt><trkpt lat="40.6478833" lon="-3.3734233"><ele>692.0</ele><time>2026-03-28T17:23:43.32Z</time></trkpt><trkpt lat="40.6477917" lon="-3.37344"><ele>691.2</ele><time>2026-03-28T17:23:45.32Z</time></trkpt><trkpt lat="40.6476733" lon="-3.37346"><ele>690.4000000000001</ele><time>2026-03-28T17:23:47.32Z</time></trkpt><trkpt lat="40.6475533" lon="-3.373465"><ele>689.5999999999999</ele><time>2026-03-28T17:23:49.32Z</time></trkpt><trkpt lat="40.6474417" lon="-3.3734683"><ele>688.8</ele><time>2026-03-28T17:23:51.319Z</time></trkpt><trkpt lat="40.6473783" lon="-3.37346"><ele>688.0</ele><time>2026-03-28T17:23:52.32Z</time></trkpt><trkpt lat="40.6472633" lon="-3.3734417"><ele>688.0</ele><time>2026-03-28T17:23:54.32Z</time></trkpt><trkpt lat="40.6471733" lon="-3.3734233"><ele>688.0</ele><time>2026-03-28T17:23:56.32Z</time></trkpt><trkpt lat="40.6470267" lon="-3.373435"><ele>688.0</ele><time>2026-03-28T17:24:37.319Z</time></trkpt><trkpt lat="40.6471117" lon="-3.37344"><ele>688.0</ele><time>2026-03-28T17:28:29.319Z</time></trkpt><trkpt lat="40.6471867" lon="-3.3734183"><ele>688.0</ele><time>2026-03-28T17:28:31.319Z</time></trkpt><trkpt lat="40.6472817" lon="-3.3734333"><ele>688.0</ele><time>2026-03-28T17:28:33.318Z</time></trkpt><trkpt lat="40.6473467" lon="-3.3734517"><ele>688.0</ele><time>2026-03-28T17:28:34.319Z</time></trkpt><trkpt lat="40.6474333" lon="-3.37347"><ele>688.0</ele><time>2026-03-28T17:28:35.319Z</time></trkpt><trkpt lat="40.6475317" lon="-3.3734783"><ele>688.0</ele><time>2026-03-28T17:28:36.319Z</time></trkpt><trkpt lat="40.64763" lon="-3.37347"><ele>688.0</ele><time>2026-03-28T17:28:37.319Z</time></trkpt><trkpt lat="40.6477283" lon="-3.37345"><ele>688.6666666666667</ele><time>2026-03-28T17:28:38.318Z</time></trkpt><trkpt lat="40.6478267" lon="-3.3734333"><ele>689.3333333333334</ele><time>2026-03-28T17:28:39.319Z</time></trkpt><trkpt lat="40.6479217" lon="-3.37341"><ele>690.0</ele><time>2026-03-28T17:28:40.319Z</time></trkpt><trkpt lat="40.6480067" lon="-3.3734"><ele>690.6666666666666</ele><time>2026-03-28T17:28:41.319Z</time></trkpt><trkpt lat="40.6480767" lon="-3.3734083"><ele>691.3333333333333</ele><time>2026-03-28T17:28:42.319Z</time></trkpt><trkpt lat="40.64816" lon="-3.37344"><ele>692.0</ele><time>2026-03-28T17:28:44.319Z</time></trkpt><trkpt lat="40.648225" lon="-3.3734917"><ele>692.0</ele><time>2026-03-28T17:29:06.319Z</time></trkpt><trkpt lat="40.6482817" lon="-3.373585"><ele>692.0</ele><time>2026-03-28T17:29:08.319Z</time></trkpt><trkpt lat="40.648355" lon="-3.37368"><ele>692.0</ele><time>2026-03-28T17:29:10.318Z</time></trkpt><trkpt lat="40.6484383" lon="-3.373755"><ele>692.0</ele><time>2026-03-28T17:29:12.319Z</time></trkpt><trkpt lat="40.6485" lon="-3.373785"><ele>692.0</ele><time>2026-03-28T17:29:13.319Z</time></trkpt><trkpt lat="40.6485817" lon="-3.37382"><ele>692.0</ele><time>2026-03-28T17:29:14.319Z</time></trkpt><trkpt lat="40.6486683" lon="-3.3738567"><ele>693.0</ele><time>2026-03-28T17:29:15.318Z</time></trkpt><trkpt lat="40.6487433" lon="-3.3739"><ele>694.0</ele><time>2026-03-28T17:29:16.318Z</time></trkpt><trkpt lat="40.6488083" lon="-3.373945"><ele>695.0</ele><time>2026-03-28T17:29:17.319Z</time></trkpt><trkpt lat="40.64887" lon="-3.373985"><ele>696.0</ele><time>2026-03-28T17:29:18.319Z</time></trkpt><trkpt lat="40.6489233" lon="-3.37404"><ele>697.0</ele><time>2026-03-28T17:29:19.319Z</time></trkpt><trkpt lat="40.6489717" lon="-3.3741067"><ele>698.0</ele><time>2026-03-28T17:29:20.319Z</time></trkpt><trkpt lat="40.6490083" lon="-3.374185"><ele>699.0</ele><time>2026-03-28T17:29:21.319Z</time></trkpt><trkpt lat="40.64905" lon="-3.3742783"><ele>699.0</ele><time>2026-03-28T17:29:22.319Z</time></trkpt><trkpt lat="40.6490967" lon="-3.37438"><ele>699.0</ele><time>2026-03-28T17:29:23.319Z</time></trkpt><trkpt lat="40.6491433" lon="-3.3744917"><ele>699.0</ele><time>2026-03-28T17:29:24.318Z</time></trkpt><trkpt lat="40.6491867" lon="-3.3745983"><ele>699.0</ele><time>2026-03-28T17:29:25.319Z</time></trkpt><trkpt lat="40.6492317" lon="-3.3747017"><ele>699.0</ele><time>2026-03-28T17:29:26.319Z</time></trkpt><trkpt lat="40.649285" lon="-3.3748067"><ele>700.25</ele><time>2026-03-28T17:29:27.319Z</time></trkpt><trkpt lat="40.6493517" lon="-3.374945"><ele>701.5</ele><time>2026-03-28T17:29:28.319Z</time></trkpt><trkpt lat="40.649425" lon="-3.3751"><ele>702.75</ele><time>2026-03-28T17:29:29.318Z</time></trkpt><trkpt lat="40.6495017" lon="-3.3752567"><ele>704.0</ele><time>2026-03-28T17:29:30.319Z</time></trkpt><trkpt lat="40.64958" lon="-3.3753867"><ele>704.5</ele><time>2026-03-28T17:29:31.318Z</time></trkpt><trkpt lat="40.6496567" lon="-3.375515"><ele>705.0</ele><time>2026-03-28T17:29:32.319Z</time></trkpt><trkpt lat="40.649735" lon="-3.37564"><ele>705.5</ele><time>2026-03-28T17:29:33.319Z</time></trkpt><trkpt lat="40.6498083" lon="-3.3757567"><ele>706.0</ele><time>2026-03-28T17:29:34.319Z</time></trkpt><trkpt lat="40.6498917" lon="-3.375875"><ele>706.75</ele><time>2026-03-28T17:29:35.318Z</time></trkpt><trkpt lat="40.6499783" lon="-3.3759967"><ele>707.5</ele><time>2026-03-28T17:29:36.318Z</time></trkpt><trkpt lat="40.6500717" lon="-3.3761167"><ele>708.25</ele><time>2026-03-28T17:29:37.319Z</time></trkpt><trkpt lat="40.6501517" lon="-3.37623"><ele>709.0</ele><time>2026-03-28T17:29:38.319Z</time></trkpt><trkpt lat="40.6502283" lon="-3.37634"><ele>708.8000000000001</ele><time>2026-03-28T17:29:39.319Z</time></trkpt><trkpt lat="40.6503117" lon="-3.376445"><ele>708.6</ele><time>2026-03-28T17:29:40.319Z</time></trkpt><trkpt lat="40.6503833" lon="-3.3765433"><ele>708.4</ele><time>2026-03-28T17:29:41.319Z</time></trkpt><trkpt lat="40.6504567" lon="-3.376635"><ele>708.2</ele><time>2026-03-28T17:29:42.318Z</time></trkpt><trkpt lat="40.6505233" lon="-3.37673"><ele>708.0</ele><time>2026-03-28T17:29:43.318Z</time></trkpt><trkpt lat="40.650595" lon="-3.376825"><ele>708.0</ele><time>2026-03-28T17:29:44.319Z</time></trkpt><trkpt lat="40.6506617" lon="-3.3769283"><ele>708.0</ele><time>2026-03-28T17:29:45.318Z</time></trkpt><trkpt lat="40.6507383" lon="-3.3770383"><ele>708.0</ele><time>2026-03-28T17:29:46.318Z</time></trkpt><trkpt lat="40.6508233" lon="-3.37716"><ele>708.0</ele><time>2026-03-28T17:29:47.319Z</time></trkpt><trkpt lat="40.6509133" lon="-3.3772867"><ele>707.75</ele><time>2026-03-28T17:29:48.319Z</time></trkpt><trkpt lat="40.6509933" lon="-3.377395"><ele>707.5</ele><time>2026-03-28T17:29:49.319Z</time></trkpt><trkpt lat="40.6510767" lon="-3.3775033"><ele>707.25</ele><time>2026-03-28T17:29:50.319Z</time></trkpt><trkpt lat="40.651165" lon="-3.37762"><ele>707.0</ele><time>2026-03-28T17:29:51.318Z</time></trkpt><trkpt lat="40.6512617" lon="-3.377755"><ele>707.5</ele><time>2026-03-28T17:29:52.319Z</time></trkpt><trkpt lat="40.6513567" lon="-3.3778833"><ele>708.0</ele><time>2026-03-28T17:29:53.319Z</time></trkpt><trkpt lat="40.651445" lon="-3.3780017"><ele>708.5</ele><time>2026-03-28T17:29:54.319Z</time></trkpt><trkpt lat="40.65152" lon="-3.37811"><ele>709.0</ele><time>2026-03-28T17:29:55.318Z</time></trkpt><trkpt lat="40.6516017" lon="-3.3782133"><ele>709.5</ele><time>2026-03-28T17:29:56.319Z</time></trkpt><trkpt lat="40.651685" lon="-3.3783233"><ele>710.0</ele><time>2026-03-28T17:29:57.318Z</time></trkpt><trkpt lat="40.6517733" lon="-3.3784417"><ele>710.5</ele><time>2026-03-28T17:29:58.319Z</time></trkpt><trkpt lat="40.6518633" lon="-3.3785617"><ele>711.0</ele><time>2026-03-28T17:29:59.319Z</time></trkpt><trkpt lat="40.6519533" lon="-3.3786833"><ele>710.8</ele><time>2026-03-28T17:30:00.318Z</time></trkpt><trkpt lat="40.65204" lon="-3.3788033"><ele>710.5999999999999</ele><time>2026-03-28T17:30:01.319Z</time></trkpt><trkpt lat="40.652115" lon="-3.3789083"><ele>710.4</ele><time>2026-03-28T17:30:02.319Z</time></trkpt><trkpt lat="40.65218" lon="-3.3789917"><ele>710.2</ele><time>2026-03-28T17:30:03.319Z</time></trkpt><trkpt lat="40.65224" lon="-3.3790717"><ele>710.0</ele><time>2026-03-28T17:30:04.318Z</time></trkpt><trkpt lat="40.6522983" lon="-3.3791583"><ele>710.4</ele><time>2026-03-28T17:30:05.318Z</time></trkpt><trkpt lat="40.6523567" lon="-3.3792517"><ele>710.8</ele><time>2026-03-28T17:30:06.319Z</time></trkpt><trkpt lat="40.6524217" lon="-3.3793533"><ele>711.2</ele><time>2026-03-28T17:30:07.319Z</time></trkpt><trkpt lat="40.6524817" lon="-3.3794467"><ele>711.6</ele><time>2026-03-28T17:30:08.319Z</time></trkpt><trkpt lat="40.65255" lon="-3.379535"><ele>712.0</ele><time>2026-03-28T17:30:09.318Z</time></trkpt><trkpt lat="40.6526233" lon="-3.3796333"><ele>712.0</ele><time>2026-03-28T17:30:10.318Z</time></trkpt><trkpt lat="40.6527133" lon="-3.37975"><ele>712.0</ele><time>2026-03-28T17:30:11.319Z</time></trkpt><trkpt lat="40.65281" lon="-3.379875"><ele>712.0</ele><time>2026-03-28T17:30:12.318Z</time></trkpt><trkpt lat="40.65291" lon="-3.3800067"><ele>712.0</ele><time>2026-03-28T17:30:13.318Z</time></trkpt><trkpt lat="40.6530117" lon="-3.3801633"><ele>712.0</ele><time>2026-03-28T17:30:14.318Z</time></trkpt><trkpt lat="40.6531083" lon="-3.3803133"><ele>712.0</ele><time>2026-03-28T17:30:15.318Z</time></trkpt><trkpt lat="40.6532133" lon="-3.38046"><ele>712.0</ele><time>2026-03-28T17:30:16.319Z</time></trkpt><trkpt lat="40.6533233" lon="-3.3806067"><ele>712.0</ele><time>2026-03-28T17:30:17.319Z</time></trkpt><trkpt lat="40.6534383" lon="-3.3807567"><ele>712.0</ele><time>2026-03-28T17:30:18.319Z</time></trkpt><trkpt lat="40.6535483" lon="-3.3809233"><ele>712.0</ele><time>2026-03-28T17:30:19.319Z</time></trkpt><trkpt lat="40.6536667" lon="-3.3810867"><ele>712.3333333333334</ele><time>2026-03-28T17:30:20.319Z</time></trkpt><trkpt lat="40.6537783" lon="-3.3812333"><ele>712.6666666666666</ele><time>2026-03-28T17:30:21.319Z</time></trkpt><trkpt lat="40.6538933" lon="-3.3813733"><ele>713.0</ele><time>2026-03-28T17:30:22.318Z</time></trkpt><trkpt lat="40.6539883" lon="-3.3815033"><ele>713.25</ele><time>2026-03-28T17:30:23.319Z</time></trkpt><trkpt lat="40.6540783" lon="-3.3816333"><ele>713.5</ele><time>2026-03-28T17:30:24.319Z</time></trkpt><trkpt lat="40.65417" lon="-3.38176"><ele>713.75</ele><time>2026-03-28T17:30:25.319Z</time></trkpt><trkpt lat="40.654265" lon="-3.3818883"><ele>714.0</ele><time>2026-03-28T17:30:26.318Z</time></trkpt><trkpt lat="40.65436" lon="-3.3820183"><ele>714.75</ele><time>2026-03-28T17:30:27.319Z</time></trkpt><trkpt lat="40.65446" lon="-3.3821517"><ele>715.5</ele><time>2026-03-28T17:30:28.318Z</time></trkpt><trkpt lat="40.6545633" lon="-3.3822867"><ele>716.25</ele><time>2026-03-28T17:30:29.318Z</time></trkpt><trkpt lat="40.6546683" lon="-3.38242"><ele>717.0</ele><time>2026-03-28T17:30:30.319Z</time></trkpt><trkpt lat="40.6547717" lon="-3.3825633"><ele>717.5</ele><time>2026-03-28T17:30:31.319Z</time></trkpt><trkpt lat="40.6548733" lon="-3.38271"><ele>718.0</ele><time>2026-03-28T17:30:32.319Z</time></trkpt><trkpt lat="40.654975" lon="-3.38285"><ele>718.5</ele><time>2026-03-28T17:30:33.319Z</time></trkpt><trkpt lat="40.6550717" lon="-3.38299"><ele>719.0</ele><time>2026-03-28T17:30:34.319Z</time></trkpt><trkpt lat="40.6551633" lon="-3.3831233"><ele>719.0</ele><time>2026-03-28T17:30:35.318Z</time></trkpt><trkpt lat="40.6552533" lon="-3.383245"><ele>719.0</ele><time>2026-03-28T17:30:36.319Z</time></trkpt><trkpt lat="40.6553467" lon="-3.38337"><ele>719.0</ele><time>2026-03-28T17:30:37.319Z</time></trkpt><trkpt lat="40.6554433" lon="-3.383515"><ele>719.0</ele><time>2026-03-28T17:30:38.318Z</time></trkpt><trkpt lat="40.655545" lon="-3.3836483"><ele>719.5</ele><time>2026-03-28T17:30:39.319Z</time></trkpt><trkpt lat="40.6556417" lon="-3.383775"><ele>720.0</ele><time>2026-03-28T17:30:40.319Z</time></trkpt><trkpt lat="40.655735" lon="-3.3838967"><ele>720.5</ele><time>2026-03-28T17:30:41.319Z</time></trkpt><trkpt lat="40.655825" lon="-3.3840267"><ele>721.0</ele><time>2026-03-28T17:30:42.319Z</time></trkpt><trkpt lat="40.6559183" lon="-3.384155"><ele>721.5</ele><time>2026-03-28T17:30:43.319Z</time></trkpt><trkpt lat="40.6560133" lon="-3.3842767"><ele>722.0</ele><time>2026-03-28T17:30:44.319Z</time></trkpt><trkpt lat="40.6561117" lon="-3.3844017"><ele>722.5</ele><time>2026-03-28T17:30:45.319Z</time></trkpt><trkpt lat="40.6562117" lon="-3.3845317"><ele>723.0</ele><time>2026-03-28T17:30:46.318Z</time></trkpt><trkpt lat="40.6563083" lon="-3.3846617"><ele>724.25</ele><time>2026-03-28T17:30:47.318Z</time></trkpt><trkpt lat="40.6564083" lon="-3.3848033"><ele>725.5</ele><time>2026-03-28T17:30:48.319Z</time></trkpt><trkpt lat="40.6565" lon="-3.3849367"><ele>726.75</ele><time>2026-03-28T17:30:49.319Z</time></trkpt><trkpt lat="40.6565967" lon="-3.3850683"><ele>728.0</ele><time>2026-03-28T17:30:50.319Z</time></trkpt><trkpt lat="40.656695" lon="-3.3852083"><ele>728.0</ele><time>2026-03-28T17:30:51.319Z</time></trkpt><trkpt lat="40.656795" lon="-3.3853533"><ele>728.0</ele><time>2026-03-28T17:30:52.318Z</time></trkpt><trkpt lat="40.6568933" lon="-3.3854867"><ele>728.0</ele><time>2026-03-28T17:30:53.318Z</time></trkpt><trkpt lat="40.6569967" lon="-3.3856283"><ele>728.0</ele><time>2026-03-28T17:30:54.319Z</time></trkpt><trkpt lat="40.657095" lon="-3.3857717"><ele>728.75</ele><time>2026-03-28T17:30:55.318Z</time></trkpt><trkpt lat="40.65719" lon="-3.385915"><ele>729.5</ele><time>2026-03-28T17:30:56.319Z</time></trkpt><trkpt lat="40.6572933" lon="-3.3860483"><ele>730.25</ele><time>2026-03-28T17:30:57.318Z</time></trkpt><trkpt lat="40.6574017" lon="-3.3861867"><ele>731.0</ele><time>2026-03-28T17:30:58.319Z</time></trkpt><trkpt lat="40.6575067" lon="-3.3863267"><ele>731.5</ele><time>2026-03-28T17:30:59.318Z</time></trkpt><trkpt lat="40.65761" lon="-3.3864567"><ele>732.0</ele><time>2026-03-28T17:31:00.319Z</time></trkpt><trkpt lat="40.6577067" lon="-3.38659"><ele>732.5</ele><time>2026-03-28T17:31:01.319Z</time></trkpt><trkpt lat="40.6578067" lon="-3.38673"><ele>733.0</ele><time>2026-03-28T17:31:02.319Z</time></trkpt><trkpt lat="40.6579033" lon="-3.3868583"><ele>734.0</ele><time>2026-03-28T17:31:03.318Z</time></trkpt><trkpt lat="40.6580033" lon="-3.386985"><ele>735.0</ele><time>2026-03-28T17:31:04.318Z</time></trkpt><trkpt lat="40.6580983" lon="-3.3871083"><ele>736.0</ele><time>2026-03-28T17:31:05.319Z</time></trkpt><trkpt lat="40.6581933" lon="-3.3872417"><ele>737.0</ele><time>2026-03-28T17:31:06.319Z</time></trkpt><trkpt lat="40.6582767" lon="-3.38736"><ele>737.4000000000001</ele><time>2026-03-28T17:31:07.319Z</time></trkpt><trkpt lat="40.65835" lon="-3.3874633"><ele>737.8000000000001</ele><time>2026-03-28T17:31:08.319Z</time></trkpt><trkpt lat="40.658415" lon="-3.3875583"><ele>738.2</ele><time>2026-03-28T17:31:09.319Z</time></trkpt><trkpt lat="40.6584733" lon="-3.38764"><ele>738.6</ele><time>2026-03-28T17:31:10.319Z</time></trkpt><trkpt lat="40.6585233" lon="-3.3877017"><ele>739.0</ele><time>2026-03-28T17:31:11.319Z</time></trkpt><trkpt lat="40.6586083" lon="-3.387825"><ele>739.1666666666667</ele><time>2026-03-28T17:31:13.319Z</time></trkpt><trkpt lat="40.6586867" lon="-3.3879567"><ele>739.3333333333334</ele><time>2026-03-28T17:31:15.319Z</time></trkpt><trkpt lat="40.6587333" lon="-3.3880217"><ele>739.5</ele><time>2026-03-28T17:31:16.319Z</time></trkpt><trkpt lat="40.6587783" lon="-3.38809"><ele>739.6666666666666</ele><time>2026-03-28T17:31:17.319Z</time></trkpt><trkpt lat="40.6588167" lon="-3.3881583"><ele>739.8333333333333</ele><time>2026-03-28T17:31:18.318Z</time></trkpt><trkpt lat="40.65886" lon="-3.3882317"><ele>740.0</ele><time>2026-03-28T17:31:19.318Z</time></trkpt><trkpt lat="40.6589033" lon="-3.3882967"><ele>739.5</ele><time>2026-03-28T17:31:20.318Z</time></trkpt><trkpt lat="40.6589517" lon="-3.3883533"><ele>739.0</ele><time>2026-03-28T17:31:21.318Z</time></trkpt><trkpt lat="40.6590233" lon="-3.3884417"><ele>738.5</ele><time>2026-03-28T17:31:23.319Z</time></trkpt><trkpt lat="40.6590617" lon="-3.388525"><ele>738.0</ele><time>2026-03-28T17:31:26.318Z</time></trkpt><trkpt lat="40.6591083" lon="-3.388585"><ele>737.5</ele><time>2026-03-28T17:31:29.319Z</time></trkpt><trkpt lat="40.6591667" lon="-3.3886417"><ele>737.0</ele><time>2026-03-28T17:31:31.319Z</time></trkpt><trkpt lat="40.6591983" lon="-3.3887333"><ele>737.0</ele><time>2026-03-28T17:31:34.319Z</time></trkpt><trkpt lat="40.65916" lon="-3.38884"><ele>737.0</ele><time>2026-03-28T17:31:37.318Z</time></trkpt><trkpt lat="40.65911" lon="-3.38893"><ele>737.0</ele><time>2026-03-28T17:31:40.319Z</time></trkpt><trkpt lat="40.65905" lon="-3.3889717"><ele>737.0</ele><time>2026-03-28T17:31:42.319Z</time></trkpt><trkpt lat="40.658975" lon="-3.389005"><ele>737.0</ele><time>2026-03-28T17:31:44.318Z</time></trkpt><trkpt lat="40.65885" lon="-3.3890183"><ele>737.0</ele><time>2026-03-28T17:31:46.319Z</time></trkpt><trkpt lat="40.6587567" lon="-3.3890283"><ele>735.8</ele><time>2026-03-28T17:31:47.319Z</time></trkpt><trkpt lat="40.6586417" lon="-3.3890433"><ele>734.6</ele><time>2026-03-28T17:31:48.319Z</time></trkpt><trkpt lat="40.6585383" lon="-3.38907"><ele>733.4</ele><time>2026-03-28T17:31:49.318Z</time></trkpt><trkpt lat="40.6584517" lon="-3.3890867"><ele>732.1999999999999</ele><time>2026-03-28T17:31:50.318Z</time></trkpt><trkpt lat="40.6583783" lon="-3.3890983"><ele>731.0</ele><time>2026-03-28T17:31:51.319Z</time></trkpt><trkpt lat="40.658305" lon="-3.3891133"><ele>730.8333333333333</ele><time>2026-03-28T17:31:52.318Z</time></trkpt><trkpt lat="40.658235" lon="-3.3891317"><ele>730.6666666666666</ele><time>2026-03-28T17:31:53.318Z</time></trkpt><trkpt lat="40.6581567" lon="-3.3891567"><ele>730.5</ele><time>2026-03-28T17:31:54.319Z</time></trkpt><trkpt lat="40.6580667" lon="-3.389195"><ele>730.3333333333334</ele><time>2026-03-28T17:31:55.319Z</time></trkpt><trkpt lat="40.657965" lon="-3.3892283"><ele>730.1666666666667</ele><time>2026-03-28T17:31:56.319Z</time></trkpt><trkpt lat="40.6578717" lon="-3.3892567"><ele>730.0</ele><time>2026-03-28T17:31:57.319Z</time></trkpt><trkpt lat="40.657785" lon="-3.3892733"><ele>730.0</ele><time>2026-03-28T17:31:58.319Z</time></trkpt><trkpt lat="40.6577067" lon="-3.3892867"><ele>730.0</ele><time>2026-03-28T17:31:59.318Z</time></trkpt><trkpt lat="40.6576383" lon="-3.3892933"><ele>730.0</ele><time>2026-03-28T17:32:00.318Z</time></trkpt><trkpt lat="40.6575133" lon="-3.3893"><ele>730.0</ele><time>2026-03-28T17:32:02.319Z</time></trkpt><trkpt lat="40.657395" lon="-3.3892733"><ele>730.0</ele><time>2026-03-28T17:32:04.318Z</time></trkpt><trkpt lat="40.6573217" lon="-3.389265"><ele>730.0</ele><time>2026-03-28T17:32:05.319Z</time></trkpt><trkpt lat="40.6572433" lon="-3.3892633"><ele>730.0</ele><time>2026-03-28T17:32:06.319Z</time></trkpt><trkpt lat="40.65717" lon="-3.3892633"><ele>730.0</ele><time>2026-03-28T17:32:07.319Z</time></trkpt><trkpt lat="40.6570533" lon="-3.3892767"><ele>730.0</ele><time>2026-03-28T17:32:09.319Z</time></trkpt><trkpt lat="40.6569533" lon="-3.3892767"><ele>730.0</ele><time>2026-03-28T17:32:11.319Z</time></trkpt><trkpt lat="40.656865" lon="-3.3892433"><ele>729.3333333333334</ele><time>2026-03-28T17:32:13.319Z</time></trkpt><trkpt lat="40.6567783" lon="-3.3892217"><ele>728.6666666666667</ele><time>2026-03-28T17:32:15.319Z</time></trkpt><trkpt lat="40.6567017" lon="-3.3892233"><ele>728.0</ele><time>2026-03-28T17:32:17.318Z</time></trkpt><trkpt lat="40.6566217" lon="-3.3892117"><ele>727.3333333333334</ele><time>2026-03-28T17:32:19.318Z</time></trkpt><trkpt lat="40.6565467" lon="-3.3891983"><ele>726.6666666666666</ele><time>2026-03-28T17:32:21.318Z</time></trkpt><trkpt lat="40.6564783" lon="-3.3891717"><ele>726.0</ele><time>2026-03-28T17:32:24.318Z</time></trkpt><trkpt lat="40.65643" lon="-3.3890683"><ele>726.0</ele><time>2026-03-28T17:32:55.317Z</time></trkpt><trkpt lat="40.6563917" lon="-3.3889517"><ele>726.0</ele><time>2026-03-28T17:32:57.318Z</time></trkpt><trkpt lat="40.6563683" lon="-3.388795"><ele>726.0</ele><time>2026-03-28T17:32:59.317Z</time></trkpt><trkpt lat="40.656355" lon="-3.3887017"><ele>726.0</ele><time>2026-03-28T17:33:00.318Z</time></trkpt><trkpt lat="40.656335" lon="-3.3886083"><ele>726.0</ele><time>2026-03-28T17:33:01.317Z</time></trkpt><trkpt lat="40.656315" lon="-3.3885"><ele>726.0</ele><time>2026-03-28T17:33:02.317Z</time></trkpt><trkpt lat="40.6563083" lon="-3.3884117"><ele>726.0</ele><time>2026-03-28T17:33:03.318Z</time></trkpt><trkpt lat="40.6562867" lon="-3.3883017"><ele>726.0</ele><time>2026-03-28T17:33:05.318Z</time></trkpt><trkpt lat="40.65623" lon="-3.3882517"><ele>726.0</ele><time>2026-03-28T17:33:07.318Z</time></trkpt><trkpt lat="40.65613" lon="-3.3882333"><ele>726.0</ele><time>2026-03-28T17:33:09.318Z</time></trkpt><trkpt lat="40.6560067" lon="-3.3882233"><ele>726.0</ele><time>2026-03-28T17:33:11.318Z</time></trkpt><trkpt lat="40.655885" lon="-3.3882233"><ele>726.0</ele><time>2026-03-28T17:33:13.318Z</time></trkpt><trkpt lat="40.655765" lon="-3.388225"><ele>726.0</ele><time>2026-03-28T17:33:15.318Z</time></trkpt><trkpt lat="40.6556567" lon="-3.388215"><ele>726.0</ele><time>2026-03-28T17:33:17.318Z</time></trkpt><trkpt lat="40.6555433" lon="-3.3881883"><ele>726.0</ele><time>2026-03-28T17:33:19.318Z</time></trkpt><trkpt lat="40.6554517" lon="-3.38818"><ele>726.0</ele><time>2026-03-28T17:33:21.318Z</time></trkpt><trkpt lat="40.65536" lon="-3.38816"><ele>725.5999999999999</ele><time>2026-03-28T17:33:23.317Z</time></trkpt><trkpt lat="40.6552617" lon="-3.38815"><ele>725.2</ele><time>2026-03-28T17:33:25.318Z</time></trkpt><trkpt lat="40.6551617" lon="-3.3881333"><ele>724.8</ele><time>2026-03-28T17:33:27.318Z</time></trkpt><trkpt lat="40.6550567" lon="-3.388115"><ele>724.4000000000001</ele><time>2026-03-28T17:33:29.318Z</time></trkpt><trkpt lat="40.6549717" lon="-3.3880833"><ele>724.0</ele><time>2026-03-28T17:33:31.317Z</time></trkpt><trkpt lat="40.6548917" lon="-3.38802"><ele>723.8333333333334</ele><time>2026-03-28T17:33:33.318Z</time></trkpt><trkpt lat="40.654825" lon="-3.3879317"><ele>723.6666666666667</ele><time>2026-03-28T17:33:35.318Z</time></trkpt><trkpt lat="40.65479" lon="-3.3878133"><ele>723.5</ele><time>2026-03-28T17:33:37.318Z</time></trkpt><trkpt lat="40.6547583" lon="-3.3876483"><ele>723.3333333333334</ele><time>2026-03-28T17:33:39.318Z</time></trkpt><trkpt lat="40.6547483" lon="-3.387565"><ele>723.1666666666666</ele><time>2026-03-28T17:33:40.318Z</time></trkpt><trkpt lat="40.6547233" lon="-3.3874867"><ele>723.0</ele><time>2026-03-28T17:33:41.317Z</time></trkpt><trkpt lat="40.6546867" lon="-3.3874117"><ele>723.0</ele><time>2026-03-28T17:33:42.318Z</time></trkpt><trkpt lat="40.65464" lon="-3.387355"><ele>723.0</ele><time>2026-03-28T17:33:43.318Z</time></trkpt><trkpt lat="40.6545417" lon="-3.3872633"><ele>723.0</ele><time>2026-03-28T17:33:45.317Z</time></trkpt><trkpt lat="40.6544933" lon="-3.387205"><ele>723.0</ele><time>2026-03-28T17:33:46.318Z</time></trkpt><trkpt lat="40.6544383" lon="-3.38715"><ele>723.0</ele><time>2026-03-28T17:33:47.317Z</time></trkpt><trkpt lat="40.654385" lon="-3.3870967"><ele>723.0</ele><time>2026-03-28T17:33:48.318Z</time></trkpt><trkpt lat="40.6543267" lon="-3.387055"><ele>722.8333333333334</ele><time>2026-03-28T17:33:49.318Z</time></trkpt><trkpt lat="40.6542633" lon="-3.38701"><ele>722.6666666666666</ele><time>2026-03-28T17:33:50.317Z</time></trkpt><trkpt lat="40.65419" lon="-3.3869617"><ele>722.5</ele><time>2026-03-28T17:33:51.318Z</time></trkpt><trkpt lat="40.6541183" lon="-3.38692"><ele>722.3333333333333</ele><time>2026-03-28T17:33:52.318Z</time></trkpt><trkpt lat="40.654055" lon="-3.3868717"><ele>722.1666666666666</ele><time>2026-03-28T17:33:53.318Z</time></trkpt><trkpt lat="40.65397" lon="-3.38675"><ele>722.0</ele><time>2026-03-28T17:33:55.317Z</time></trkpt><trkpt lat="40.65392" lon="-3.38667"><ele>722.0</ele><time>2026-03-28T17:33:56.317Z</time></trkpt><trkpt lat="40.653865" lon="-3.3865817"><ele>722.0</ele><time>2026-03-28T17:33:57.318Z</time></trkpt><trkpt lat="40.6538083" lon="-3.3865"><ele>722.0</ele><time>2026-03-28T17:33:58.318Z</time></trkpt><trkpt lat="40.6537517" lon="-3.386425"><ele>722.0</ele><time>2026-03-28T17:33:59.317Z</time></trkpt><trkpt lat="40.6536917" lon="-3.38636"><ele>722.0</ele><time>2026-03-28T17:34:00.318Z</time></trkpt><trkpt lat="40.65364" lon="-3.3863017"><ele>722.0</ele><time>2026-03-28T17:34:01.318Z</time></trkpt><trkpt lat="40.653595" lon="-3.38624"><ele>721.5</ele><time>2026-03-28T17:34:02.318Z</time></trkpt><trkpt lat="40.653545" lon="-3.3861783"><ele>721.0</ele><time>2026-03-28T17:34:03.318Z</time></trkpt><trkpt lat="40.6535" lon="-3.3861167"><ele>720.5</ele><time>2026-03-28T17:34:04.318Z</time></trkpt><trkpt lat="40.653455" lon="-3.3860567"><ele>720.0</ele><time>2026-03-28T17:34:05.318Z</time></trkpt><trkpt lat="40.6533717" lon="-3.385955"><ele>719.5</ele><time>2026-03-28T17:34:07.318Z</time></trkpt><trkpt lat="40.6532933" lon="-3.3858483"><ele>719.0</ele><time>2026-03-28T17:34:09.317Z</time></trkpt><trkpt lat="40.6532467" lon="-3.3857917"><ele>719.0</ele><time>2026-03-28T17:34:10.318Z</time></trkpt><trkpt lat="40.6531967" lon="-3.385725"><ele>719.0</ele><time>2026-03-28T17:34:11.318Z</time></trkpt><trkpt lat="40.6531167" lon="-3.38562"><ele>719.0</ele><time>2026-03-28T17:34:13.318Z</time></trkpt><trkpt lat="40.6530433" lon="-3.385575"><ele>719.0</ele><time>2026-03-28T17:34:15.318Z</time></trkpt><trkpt lat="40.652975" lon="-3.3855383"><ele>719.0</ele><time>2026-03-28T17:34:17.317Z</time></trkpt><trkpt lat="40.65291" lon="-3.3854967"><ele>719.0</ele><time>2026-03-28T17:34:19.317Z</time></trkpt><trkpt lat="40.6528567" lon="-3.3854383"><ele>718.8333333333333</ele><time>2026-03-28T17:34:21.317Z</time></trkpt><trkpt lat="40.6527917" lon="-3.385365"><ele>718.6666666666666</ele><time>2026-03-28T17:34:23.318Z</time></trkpt><trkpt lat="40.6527483" lon="-3.3853017"><ele>718.5</ele><time>2026-03-28T17:34:25.318Z</time></trkpt><trkpt lat="40.652705" lon="-3.385225"><ele>718.3333333333334</ele><time>2026-03-28T17:34:27.318Z</time></trkpt><trkpt lat="40.6526267" lon="-3.3850783"><ele>718.1666666666667</ele><time>2026-03-28T17:34:29.318Z</time></trkpt><trkpt lat="40.65258" lon="-3.385"><ele>718.0</ele><time>2026-03-28T17:34:30.318Z</time></trkpt><trkpt lat="40.6525417" lon="-3.3849183"><ele>717.5999999999999</ele><time>2026-03-28T17:34:31.318Z</time></trkpt><trkpt lat="40.6524683" lon="-3.3848283"><ele>717.1999999999999</ele><time>2026-03-28T17:34:33.317Z</time></trkpt><trkpt lat="40.6523517" lon="-3.3847933"><ele>716.8</ele><time>2026-03-28T17:34:35.317Z</time></trkpt><trkpt lat="40.6522867" lon="-3.3847883"><ele>716.4</ele><time>2026-03-28T17:34:36.317Z</time></trkpt><trkpt lat="40.6521617" lon="-3.3848317"><ele>716.0</ele><time>2026-03-28T17:34:38.317Z</time></trkpt><trkpt lat="40.6520933" lon="-3.3848717"><ele>716.0</ele><time>2026-03-28T17:34:39.318Z</time></trkpt><trkpt lat="40.652035" lon="-3.3849117"><ele>716.0</ele><time>2026-03-28T17:34:40.317Z</time></trkpt><trkpt lat="40.6519417" lon="-3.3849617"><ele>716.0</ele><time>2026-03-28T17:34:42.318Z</time></trkpt><trkpt lat="40.65184" lon="-3.3849783"><ele>716.0</ele><time>2026-03-28T17:34:44.318Z</time></trkpt><trkpt lat="40.651725" lon="-3.3849817"><ele>716.0</ele><time>2026-03-28T17:34:46.317Z</time></trkpt><trkpt lat="40.6516583" lon="-3.3849833"><ele>715.4</ele><time>2026-03-28T17:34:47.318Z</time></trkpt><trkpt lat="40.65159" lon="-3.3849817"><ele>714.8</ele><time>2026-03-28T17:34:48.317Z</time></trkpt><trkpt lat="40.6514667" lon="-3.3849517"><ele>714.1999999999999</ele><time>2026-03-28T17:34:50.318Z</time></trkpt><trkpt lat="40.6513567" lon="-3.3849067"><ele>713.5999999999999</ele><time>2026-03-28T17:34:52.317Z</time></trkpt><trkpt lat="40.651245" lon="-3.384865"><ele>713.0</ele><time>2026-03-28T17:34:54.318Z</time></trkpt><trkpt lat="40.6511467" lon="-3.3848417"><ele>712.5999999999999</ele><time>2026-03-28T17:34:56.317Z</time></trkpt><trkpt lat="40.6510417" lon="-3.3848467"><ele>712.1999999999999</ele><time>2026-03-28T17:34:58.318Z</time></trkpt><trkpt lat="40.6509517" lon="-3.38485"><ele>711.8</ele><time>2026-03-28T17:35:00.318Z</time></trkpt><trkpt lat="40.650875" lon="-3.3848167"><ele>711.4</ele><time>2026-03-28T17:35:02.317Z</time></trkpt><trkpt lat="40.6507733" lon="-3.3847683"><ele>711.0</ele><time>2026-03-28T17:35:04.318Z</time></trkpt><trkpt lat="40.6506883" lon="-3.3846983"><ele>711.0</ele><time>2026-03-28T17:35:06.317Z</time></trkpt><trkpt lat="40.650605" lon="-3.38462"><ele>711.0</ele><time>2026-03-28T17:35:08.318Z</time></trkpt><trkpt lat="40.6505183" lon="-3.3845333"><ele>711.0</ele><time>2026-03-28T17:35:10.317Z</time></trkpt><trkpt lat="40.6504583" lon="-3.3844433"><ele>711.0</ele><time>2026-03-28T17:35:12.317Z</time></trkpt><trkpt lat="40.6504367" lon="-3.3843333"><ele>711.0</ele><time>2026-03-28T17:35:14.317Z</time></trkpt><trkpt lat="40.6504183" lon="-3.3842367"><ele>711.0</ele><time>2026-03-28T17:35:16.318Z</time></trkpt><trkpt lat="40.6503983" lon="-3.384135"><ele>711.0</ele><time>2026-03-28T17:35:18.318Z</time></trkpt><trkpt lat="40.6503767" lon="-3.3840017"><ele>711.0</ele><time>2026-03-28T17:35:20.317Z</time></trkpt><trkpt lat="40.6503167" lon="-3.3839217"><ele>711.0</ele><time>2026-03-28T17:35:22.318Z</time></trkpt><trkpt lat="40.650235" lon="-3.3838833"><ele>711.0</ele><time>2026-03-28T17:35:24.318Z</time></trkpt><trkpt lat="40.65016" lon="-3.3838167"><ele>711.0</ele><time>2026-03-28T17:35:26.318Z</time></trkpt><trkpt lat="40.65005" lon="-3.38371"><ele>711.1666666666666</ele><time>2026-03-28T17:35:28.318Z</time></trkpt><trkpt lat="40.6499783" lon="-3.38367"><ele>711.3333333333334</ele><time>2026-03-28T17:35:29.317Z</time></trkpt><trkpt lat="40.649895" lon="-3.3836683"><ele>711.5</ele><time>2026-03-28T17:35:30.317Z</time></trkpt><trkpt lat="40.649815" lon="-3.3836833"><ele>711.6666666666667</ele><time>2026-03-28T17:35:31.317Z</time></trkpt><trkpt lat="40.6497233" lon="-3.3837017"><ele>711.8333333333334</ele><time>2026-03-28T17:35:33.318Z</time></trkpt><trkpt lat="40.649665" lon="-3.3836433"><ele>712.0</ele><time>2026-03-28T17:35:36.318Z</time></trkpt><trkpt lat="40.6495967" lon="-3.38352"><ele>712.0</ele><time>2026-03-28T17:35:38.318Z</time></trkpt><trkpt lat="40.649545" lon="-3.3834433"><ele>712.0</ele><time>2026-03-28T17:35:39.317Z</time></trkpt><trkpt lat="40.6494883" lon="-3.3833717"><ele>712.0</ele><time>2026-03-28T17:35:40.318Z</time></trkpt><trkpt lat="40.6494317" lon="-3.3833167"><ele>712.0</ele><time>2026-03-28T17:35:41.317Z</time></trkpt><trkpt lat="40.649335" lon="-3.3832383"><ele>712.0</ele><time>2026-03-28T17:35:43.317Z</time></trkpt><trkpt lat="40.6492633" lon="-3.3831583"><ele>712.0</ele><time>2026-03-28T17:35:45.318Z</time></trkpt><trkpt lat="40.6492217" lon="-3.383075"><ele>711.6</ele><time>2026-03-28T17:35:47.318Z</time></trkpt><trkpt lat="40.649175" lon="-3.382975"><ele>711.2</ele><time>2026-03-28T17:35:49.317Z</time></trkpt><trkpt lat="40.6491217" lon="-3.3828083"><ele>710.8</ele><time>2026-03-28T17:35:51.318Z</time></trkpt><trkpt lat="40.6490833" lon="-3.38271"><ele>710.4</ele><time>2026-03-28T17:35:52.318Z</time></trkpt><trkpt lat="40.6490433" lon="-3.382625"><ele>710.0</ele><time>2026-03-28T17:35:53.318Z</time></trkpt><trkpt lat="40.6489967" lon="-3.3825567"><ele>710.0</ele><time>2026-03-28T17:35:54.318Z</time></trkpt><trkpt lat="40.6489517" lon="-3.3824967"><ele>710.0</ele><time>2026-03-28T17:35:55.317Z</time></trkpt><trkpt lat="40.6489017" lon="-3.3824417"><ele>710.0</ele><time>2026-03-28T17:35:56.318Z</time></trkpt><trkpt lat="40.6488467" lon="-3.3823967"><ele>710.0</ele><time>2026-03-28T17:35:57.317Z</time></trkpt><trkpt lat="40.6487367" lon="-3.38233"><ele>710.0</ele><time>2026-03-28T17:35:59.317Z</time></trkpt><trkpt lat="40.6486333" lon="-3.3822817"><ele>710.0</ele><time>2026-03-28T17:36:01.318Z</time></trkpt><trkpt lat="40.6485317" lon="-3.3822517"><ele>709.75</ele><time>2026-03-28T17:36:03.318Z</time></trkpt><trkpt lat="40.6484233" lon="-3.3822217"><ele>709.5</ele><time>2026-03-28T17:36:05.317Z</time></trkpt><trkpt lat="40.648315" lon="-3.3821933"><ele>709.25</ele><time>2026-03-28T17:36:07.318Z</time></trkpt><trkpt lat="40.6482083" lon="-3.3821217"><ele>709.0</ele><time>2026-03-28T17:36:09.318Z</time></trkpt><trkpt lat="40.64813" lon="-3.3820217"><ele>709.0</ele><time>2026-03-28T17:36:11.318Z</time></trkpt><trkpt lat="40.6480867" lon="-3.38191"><ele>709.0</ele><time>2026-03-28T17:36:13.318Z</time></trkpt><trkpt lat="40.6480117" lon="-3.3817983"><ele>709.0</ele><time>2026-03-28T17:36:15.318Z</time></trkpt><trkpt lat="40.6479167" lon="-3.3817083"><ele>709.0</ele><time>2026-03-28T17:36:17.318Z</time></trkpt><trkpt lat="40.6478067" lon="-3.381645"><ele>709.0</ele><time>2026-03-28T17:36:19.318Z</time></trkpt><trkpt lat="40.6477233" lon="-3.3816033"><ele>708.1666666666667</ele><time>2026-03-28T17:36:21.318Z</time></trkpt><trkpt lat="40.6476333" lon="-3.3815817"><ele>707.3333333333334</ele><time>2026-03-28T17:36:23.318Z</time></trkpt><trkpt lat="40.6475517" lon="-3.381565"><ele>706.5</ele><time>2026-03-28T17:36:25.318Z</time></trkpt><trkpt lat="40.6474683" lon="-3.381535"><ele>705.6666666666666</ele><time>2026-03-28T17:36:27.317Z</time></trkpt><trkpt lat="40.647405" lon="-3.38152"><ele>704.8333333333333</ele><time>2026-03-28T17:36:32.318Z</time></trkpt><trkpt lat="40.6474983" lon="-3.3815367"><ele>704.0</ele><time>2026-03-28T17:37:01.318Z</time></trkpt><trkpt lat="40.6476233" lon="-3.3815833"><ele>704.0</ele><time>2026-03-28T17:37:03.317Z</time></trkpt><trkpt lat="40.6477" lon="-3.3816083"><ele>704.0</ele><time>2026-03-28T17:37:04.317Z</time></trkpt><trkpt lat="40.64778" lon="-3.3816383"><ele>704.0</ele><time>2026-03-28T17:37:05.318Z</time></trkpt><trkpt lat="40.647855" lon="-3.381675"><ele>704.0</ele><time>2026-03-28T17:37:06.318Z</time></trkpt><trkpt lat="40.6479217" lon="-3.3817233"><ele>704.0</ele><time>2026-03-28T17:37:07.318Z</time></trkpt><trkpt lat="40.647985" lon="-3.3817817"><ele>704.0</ele><time>2026-03-28T17:37:08.318Z</time></trkpt><trkpt lat="40.6480383" lon="-3.3818433"><ele>704.4000000000001</ele><time>2026-03-28T17:37:09.317Z</time></trkpt><trkpt lat="40.6480733" lon="-3.3819167"><ele>704.8</ele><time>2026-03-28T17:37:10.317Z</time></trkpt><trkpt lat="40.6481083" lon="-3.3819933"><ele>705.2</ele><time>2026-03-28T17:37:11.318Z</time></trkpt><trkpt lat="40.6481783" lon="-3.382105"><ele>705.5999999999999</ele><time>2026-03-28T17:37:13.317Z</time></trkpt><trkpt lat="40.6482633" lon="-3.382175"><ele>706.0</ele><time>2026-03-28T17:37:15.318Z</time></trkpt><trkpt lat="40.6483867" lon="-3.382225"><ele>706.0</ele><time>2026-03-28T17:37:17.318Z</time></trkpt><trkpt lat="40.6484617" lon="-3.3822383"><ele>706.0</ele><time>2026-03-28T17:37:18.317Z</time></trkpt><trkpt lat="40.6485333" lon="-3.38226"><ele>706.0</ele><time>2026-03-28T17:37:19.318Z</time></trkpt><trkpt lat="40.6486117" lon="-3.3822817"><ele>706.0</ele><time>2026-03-28T17:37:20.318Z</time></trkpt><trkpt lat="40.6486883" lon="-3.3823083"><ele>706.0</ele><time>2026-03-28T17:37:21.318Z</time></trkpt><trkpt lat="40.6487567" lon="-3.3823433"><ele>706.0</ele><time>2026-03-28T17:37:22.318Z</time></trkpt><trkpt lat="40.6488733" lon="-3.3824183"><ele>706.6666666666667</ele><time>2026-03-28T17:37:24.318Z</time></trkpt><trkpt lat="40.6489267" lon="-3.38247"><ele>707.3333333333334</ele><time>2026-03-28T17:37:25.317Z</time></trkpt><trkpt lat="40.6489717" lon="-3.38253"><ele>708.0</ele><time>2026-03-28T17:37:26.318Z</time></trkpt><trkpt lat="40.64901" lon="-3.3825967"><ele>708.6666666666666</ele><time>2026-03-28T17:37:27.318Z</time></trkpt><trkpt lat="40.6490417" lon="-3.3826733"><ele>709.3333333333333</ele><time>2026-03-28T17:37:28.318Z</time></trkpt><trkpt lat="40.6490967" lon="-3.3828133"><ele>710.0</ele><time>2026-03-28T17:37:30.318Z</time></trkpt><trkpt lat="40.64915" lon="-3.3829333"><ele>709.6</ele><time>2026-03-28T17:37:32.318Z</time></trkpt><trkpt lat="40.6492067" lon="-3.3830683"><ele>709.2</ele><time>2026-03-28T17:37:34.318Z</time></trkpt><trkpt lat="40.6492833" lon="-3.3831867"><ele>708.8</ele><time>2026-03-28T17:37:36.318Z</time></trkpt><trkpt lat="40.6493667" lon="-3.3832717"><ele>708.4</ele><time>2026-03-28T17:37:38.317Z</time></trkpt><trkpt lat="40.6494567" lon="-3.38335"><ele>708.0</ele><time>2026-03-28T17:37:40.318Z</time></trkpt><trkpt lat="40.6495067" lon="-3.38342"><ele>708.6666666666666</ele><time>2026-03-28T17:37:41.318Z</time></trkpt><trkpt lat="40.6495533" lon="-3.3834883"><ele>709.3333333333334</ele><time>2026-03-28T17:37:42.318Z</time></trkpt><trkpt lat="40.649595" lon="-3.3835567"><ele>710.0</ele><time>2026-03-28T17:37:43.317Z</time></trkpt><trkpt lat="40.6496383" lon="-3.3836233"><ele>710.6666666666667</ele><time>2026-03-28T17:37:44.318Z</time></trkpt><trkpt lat="40.6497233" lon="-3.3837033"><ele>711.3333333333334</ele><time>2026-03-28T17:37:46.318Z</time></trkpt><trkpt lat="40.6497933" lon="-3.3837233"><ele>712.0</ele><time>2026-03-28T17:37:48.317Z</time></trkpt><trkpt lat="40.649885" lon="-3.3836933"><ele>712.0</ele><time>2026-03-28T17:37:50.318Z</time></trkpt><trkpt lat="40.6499983" lon="-3.3836983"><ele>712.0</ele><time>2026-03-28T17:37:52.317Z</time></trkpt><trkpt lat="40.6501133" lon="-3.3837833"><ele>712.0</ele><time>2026-03-28T17:37:54.318Z</time></trkpt><trkpt lat="40.6501633" lon="-3.3838433"><ele>712.0</ele><time>2026-03-28T17:37:55.318Z</time></trkpt><trkpt lat="40.65025" lon="-3.3839217"><ele>712.0</ele><time>2026-03-28T17:37:57.317Z</time></trkpt><trkpt lat="40.650325" lon="-3.3839783"><ele>711.8</ele><time>2026-03-28T17:37:59.318Z</time></trkpt><trkpt lat="40.65038" lon="-3.3840733"><ele>711.6</ele><time>2026-03-28T17:38:01.318Z</time></trkpt><trkpt lat="40.65041" lon="-3.3842217"><ele>711.4</ele><time>2026-03-28T17:38:03.318Z</time></trkpt><trkpt lat="40.6504367" lon="-3.38438"><ele>711.1999999999999</ele><time>2026-03-28T17:38:05.318Z</time></trkpt><trkpt lat="40.6504833" lon="-3.3845167"><ele>711.0</ele><time>2026-03-28T17:38:07.317Z</time></trkpt><trkpt lat="40.6505533" lon="-3.3846067"><ele>711.0</ele><time>2026-03-28T17:38:09.317Z</time></trkpt><trkpt lat="40.65067" lon="-3.3847033"><ele>711.0</ele><time>2026-03-28T17:38:11.317Z</time></trkpt><trkpt lat="40.6507367" lon="-3.3847667"><ele>711.0</ele><time>2026-03-28T17:38:12.318Z</time></trkpt><trkpt lat="40.650795" lon="-3.3848117"><ele>711.0</ele><time>2026-03-28T17:38:13.318Z</time></trkpt><trkpt lat="40.6508967" lon="-3.3848417"><ele>711.0</ele><time>2026-03-28T17:38:15.318Z</time></trkpt><trkpt lat="40.6510167" lon="-3.3848467"><ele>711.4</ele><time>2026-03-28T17:38:17.317Z</time></trkpt><trkpt lat="40.6511333" lon="-3.38484"><ele>711.8</ele><time>2026-03-28T17:38:19.318Z</time></trkpt><trkpt lat="40.6512067" lon="-3.384855"><ele>712.1999999999999</ele><time>2026-03-28T17:38:20.317Z</time></trkpt><trkpt lat="40.6512867" lon="-3.384885"><ele>712.5999999999999</ele><time>2026-03-28T17:38:21.318Z</time></trkpt><trkpt lat="40.6513817" lon="-3.3849183"><ele>713.0</ele><time>2026-03-28T17:38:22.318Z</time></trkpt><trkpt lat="40.651475" lon="-3.3849567"><ele>713.0</ele><time>2026-03-28T17:38:23.317Z</time></trkpt><trkpt lat="40.6515517" lon="-3.3849833"><ele>713.0</ele><time>2026-03-28T17:38:24.318Z</time></trkpt><trkpt lat="40.6516333" lon="-3.3849933"><ele>713.0</ele><time>2026-03-28T17:38:25.318Z</time></trkpt><trkpt lat="40.6517283" lon="-3.384985"><ele>713.0</ele><time>2026-03-28T17:38:26.318Z</time></trkpt><trkpt lat="40.651815" lon="-3.3849733"><ele>713.0</ele><time>2026-03-28T17:38:27.318Z</time></trkpt><trkpt lat="40.6519133" lon="-3.3849467"><ele>713.0</ele><time>2026-03-28T17:38:29.318Z</time></trkpt><trkpt lat="40.6520033" lon="-3.3849167"><ele>713.5999999999999</ele><time>2026-03-28T17:38:31.317Z</time></trkpt><trkpt lat="40.6521183" lon="-3.3848583"><ele>714.1999999999999</ele><time>2026-03-28T17:38:33.317Z</time></trkpt><trkpt lat="40.6521867" lon="-3.38482"><ele>714.8</ele><time>2026-03-28T17:38:34.318Z</time></trkpt><trkpt lat="40.6522983" lon="-3.38478"><ele>715.4</ele><time>2026-03-28T17:38:36.318Z</time></trkpt><trkpt lat="40.6524183" lon="-3.3848117"><ele>716.0</ele><time>2026-03-28T17:38:38.318Z</time></trkpt><trkpt lat="40.6524783" lon="-3.3848433"><ele>716.0</ele><time>2026-03-28T17:38:39.317Z</time></trkpt><trkpt lat="40.6525667" lon="-3.384955"><ele>716.0</ele><time>2026-03-28T17:38:41.318Z</time></trkpt><trkpt lat="40.6526317" lon="-3.38509"><ele>716.0</ele><time>2026-03-28T17:38:43.318Z</time></trkpt><trkpt lat="40.6526733" lon="-3.3851617"><ele>716.0</ele><time>2026-03-28T17:38:44.318Z</time></trkpt><trkpt lat="40.6527183" lon="-3.3852317"><ele>716.0</ele><time>2026-03-28T17:38:45.318Z</time></trkpt><trkpt lat="40.6527633" lon="-3.385295"><ele>716.0</ele><time>2026-03-28T17:38:46.318Z</time></trkpt><trkpt lat="40.65281" lon="-3.38536"><ele>716.4</ele><time>2026-03-28T17:38:47.318Z</time></trkpt><trkpt lat="40.6528867" lon="-3.38547"><ele>716.8</ele><time>2026-03-28T17:38:49.318Z</time></trkpt><trkpt lat="40.652965" lon="-3.385545"><ele>717.1999999999999</ele><time>2026-03-28T17:38:51.318Z</time></trkpt><trkpt lat="40.653085" lon="-3.3856183"><ele>717.5999999999999</ele><time>2026-03-28T17:38:53.318Z</time></trkpt><trkpt lat="40.6531533" lon="-3.3856833"><ele>718.0</ele><time>2026-03-28T17:38:54.317Z</time></trkpt><trkpt lat="40.65321" lon="-3.38575"><ele>718.1666666666667</ele><time>2026-03-28T17:38:55.317Z</time></trkpt><trkpt lat="40.653275" lon="-3.3858217"><ele>718.3333333333334</ele><time>2026-03-28T17:38:56.317Z</time></trkpt><trkpt lat="40.653335" lon="-3.3859017"><ele>718.5</ele><time>2026-03-28T17:38:57.317Z</time></trkpt><trkpt lat="40.6533983" lon="-3.3859833"><ele>718.6666666666666</ele><time>2026-03-28T17:38:58.318Z</time></trkpt><trkpt lat="40.6534533" lon="-3.3860567"><ele>718.8333333333333</ele><time>2026-03-28T17:38:59.317Z</time></trkpt><trkpt lat="40.6535" lon="-3.3861217"><ele>719.0</ele><time>2026-03-28T17:39:00.318Z</time></trkpt><trkpt lat="40.653555" lon="-3.3861783"><ele>719.0</ele><time>2026-03-28T17:39:01.318Z</time></trkpt><trkpt lat="40.653615" lon="-3.3862567"><ele>719.0</ele><time>2026-03-28T17:39:02.317Z</time></trkpt><trkpt lat="40.65367" lon="-3.386325"><ele>719.0</ele><time>2026-03-28T17:39:03.317Z</time></trkpt><trkpt lat="40.6537217" lon="-3.3863833"><ele>719.0</ele><time>2026-03-28T17:39:04.318Z</time></trkpt><trkpt lat="40.65377" lon="-3.386445"><ele>719.0</ele><time>2026-03-28T17:39:05.318Z</time></trkpt><trkpt lat="40.653815" lon="-3.3865033"><ele>719.0</ele><time>2026-03-28T17:39:06.318Z</time></trkpt><trkpt lat="40.6538883" lon="-3.3866167"><ele>719.6</ele><time>2026-03-28T17:39:08.317Z</time></trkpt><trkpt lat="40.65396" lon="-3.3867333"><ele>720.2</ele><time>2026-03-28T17:39:10.318Z</time></trkpt><trkpt lat="40.6540317" lon="-3.3868483"><ele>720.8000000000001</ele><time>2026-03-28T17:39:12.318Z</time></trkpt><trkpt lat="40.6541117" lon="-3.3869283"><ele>721.4000000000001</ele><time>2026-03-28T17:39:14.318Z</time></trkpt><trkpt lat="40.6542033" lon="-3.3870067"><ele>722.0</ele><time>2026-03-28T17:39:16.317Z</time></trkpt><trkpt lat="40.654305" lon="-3.387075"><ele>722.0</ele><time>2026-03-28T17:39:18.318Z</time></trkpt><trkpt lat="40.6544167" lon="-3.3871467"><ele>722.0</ele><time>2026-03-28T17:39:20.318Z</time></trkpt><trkpt lat="40.654465" lon="-3.3872017"><ele>722.0</ele><time>2026-03-28T17:39:21.317Z</time></trkpt><trkpt lat="40.6545183" lon="-3.3872617"><ele>722.0</ele><time>2026-03-28T17:39:22.318Z</time></trkpt><trkpt lat="40.6545983" lon="-3.3873533"><ele>722.0</ele><time>2026-03-28T17:39:24.317Z</time></trkpt><trkpt lat="40.6546883" lon="-3.38745"><ele>722.2</ele><time>2026-03-28T17:39:26.317Z</time></trkpt><trkpt lat="40.6547483" lon="-3.3875567"><ele>722.4000000000001</ele><time>2026-03-28T17:39:28.318Z</time></trkpt><trkpt lat="40.6547783" lon="-3.3876833"><ele>722.5999999999999</ele><time>2026-03-28T17:39:30.317Z</time></trkpt><trkpt lat="40.6547983" lon="-3.387795"><ele>722.8</ele><time>2026-03-28T17:39:32.318Z</time></trkpt><trkpt lat="40.6548333" lon="-3.3879317"><ele>723.0</ele><time>2026-03-28T17:39:34.318Z</time></trkpt><trkpt lat="40.6548933" lon="-3.3880383"><ele>723.1666666666666</ele><time>2026-03-28T17:39:36.318Z</time></trkpt><trkpt lat="40.6550017" lon="-3.3880917"><ele>723.3333333333334</ele><time>2026-03-28T17:39:38.317Z</time></trkpt><trkpt lat="40.6550767" lon="-3.3881067"><ele>723.5</ele><time>2026-03-28T17:39:39.317Z</time></trkpt><trkpt lat="40.6551583" lon="-3.38812"><ele>723.6666666666667</ele><time>2026-03-28T17:39:40.317Z</time></trkpt><trkpt lat="40.6552433" lon="-3.3881317"><ele>723.8333333333334</ele><time>2026-03-28T17:39:41.317Z</time></trkpt><trkpt lat="40.65533" lon="-3.388145"><ele>724.0</ele><time>2026-03-28T17:39:42.318Z</time></trkpt><trkpt lat="40.6554183" lon="-3.3881617"><ele>724.3333333333334</ele><time>2026-03-28T17:39:43.317Z</time></trkpt><trkpt lat="40.65551" lon="-3.3881833"><ele>724.6666666666667</ele><time>2026-03-28T17:39:44.318Z</time></trkpt><trkpt lat="40.6555917" lon="-3.3882017"><ele>725.0</ele><time>2026-03-28T17:39:45.318Z</time></trkpt><trkpt lat="40.6556767" lon="-3.38821"><ele>725.3333333333334</ele><time>2026-03-28T17:39:46.318Z</time></trkpt><trkpt lat="40.65576" lon="-3.3882183"><ele>725.6666666666666</ele><time>2026-03-28T17:39:47.317Z</time></trkpt><trkpt lat="40.655825" lon="-3.3882217"><ele>726.0</ele><time>2026-03-28T17:39:48.317Z</time></trkpt><trkpt lat="40.6559467" lon="-3.3882217"><ele>726.0</ele><time>2026-03-28T17:39:50.318Z</time></trkpt><trkpt lat="40.6560183" lon="-3.3882333"><ele>726.0</ele><time>2026-03-28T17:39:51.318Z</time></trkpt><trkpt lat="40.6560917" lon="-3.38824"><ele>726.0</ele><time>2026-03-28T17:39:52.317Z</time></trkpt><trkpt lat="40.6561567" lon="-3.3882417"><ele>726.0</ele><time>2026-03-28T17:39:53.318Z</time></trkpt><trkpt lat="40.656255" lon="-3.388255"><ele>726.0</ele><time>2026-03-28T17:39:55.318Z</time></trkpt><trkpt lat="40.6563133" lon="-3.3883217"><ele>726.0</ele><time>2026-03-28T17:39:57.318Z</time></trkpt><trkpt lat="40.65633" lon="-3.3884083"><ele>726.0</ele><time>2026-03-28T17:39:59.318Z</time></trkpt><trkpt lat="40.6563283" lon="-3.3884983"><ele>726.0</ele><time>2026-03-28T17:40:01.318Z</time></trkpt><trkpt lat="40.6563333" lon="-3.388595"><ele>726.0</ele><time>2026-03-28T17:40:04.317Z</time></trkpt><trkpt lat="40.6563517" lon="-3.3886883"><ele>726.0</ele><time>2026-03-28T17:40:06.317Z</time></trkpt><trkpt lat="40.65637" lon="-3.3887883"><ele>726.0</ele><time>2026-03-28T17:40:08.316Z</time></trkpt><trkpt lat="40.656395" lon="-3.38892"><ele>726.0</ele><time>2026-03-28T17:40:10.316Z</time></trkpt><trkpt lat="40.6564283" lon="-3.3890483"><ele>726.0</ele><time>2026-03-28T17:40:12.316Z</time></trkpt><trkpt lat="40.6564883" lon="-3.38914"><ele>726.0</ele><time>2026-03-28T17:40:14.317Z</time></trkpt><trkpt lat="40.6565633" lon="-3.389175"><ele>726.0</ele><time>2026-03-28T17:40:16.317Z</time></trkpt><trkpt lat="40.6566333" lon="-3.389195"><ele>726.0</ele><time>2026-03-28T17:40:19.317Z</time></trkpt><trkpt lat="40.656715" lon="-3.3892183"><ele>726.0</ele><time>2026-03-28T17:40:42.317Z</time></trkpt><trkpt lat="40.6568183" lon="-3.38923"><ele>726.0</ele><time>2026-03-28T17:40:44.317Z</time></trkpt><trkpt lat="40.6569267" lon="-3.3892583"><ele>726.8</ele><time>2026-03-28T17:40:46.317Z</time></trkpt><trkpt lat="40.6570267" lon="-3.3892767"><ele>727.5999999999999</ele><time>2026-03-28T17:40:48.316Z</time></trkpt><trkpt lat="40.6571267" lon="-3.38926"><ele>728.4</ele><time>2026-03-28T17:40:50.317Z</time></trkpt><trkpt lat="40.65724" lon="-3.3892483"><ele>729.2</ele><time>2026-03-28T17:40:52.317Z</time></trkpt><trkpt lat="40.657315" lon="-3.38925"><ele>730.0</ele><time>2026-03-28T17:40:53.316Z</time></trkpt><trkpt lat="40.65739" lon="-3.3892617"><ele>730.0</ele><time>2026-03-28T17:40:54.317Z</time></trkpt><trkpt lat="40.6575067" lon="-3.3892933"><ele>730.0</ele><time>2026-03-28T17:40:56.317Z</time></trkpt><trkpt lat="40.657635" lon="-3.3892767"><ele>730.0</ele><time>2026-03-28T17:40:58.316Z</time></trkpt><trkpt lat="40.657715" lon="-3.3892667"><ele>730.0</ele><time>2026-03-28T17:40:59.317Z</time></trkpt><trkpt lat="40.6577933" lon="-3.3892617"><ele>730.0</ele><time>2026-03-28T17:41:00.317Z</time></trkpt><trkpt lat="40.6578667" lon="-3.3892417"><ele>729.8333333333334</ele><time>2026-03-28T17:41:01.317Z</time></trkpt><trkpt lat="40.6579383" lon="-3.389215"><ele>729.6666666666667</ele><time>2026-03-28T17:41:02.317Z</time></trkpt><trkpt lat="40.65801" lon="-3.3891917"><ele>729.5</ele><time>2026-03-28T17:41:03.316Z</time></trkpt><trkpt lat="40.658075" lon="-3.38917"><ele>729.3333333333334</ele><time>2026-03-28T17:41:04.316Z</time></trkpt><trkpt lat="40.658185" lon="-3.38915"><ele>729.1666666666666</ele><time>2026-03-28T17:41:06.317Z</time></trkpt><trkpt lat="40.6582817" lon="-3.3891367"><ele>729.0</ele><time>2026-03-28T17:41:08.317Z</time></trkpt><trkpt lat="40.6583667" lon="-3.38909"><ele>729.0</ele><time>2026-03-28T17:41:10.317Z</time></trkpt><trkpt lat="40.6585017" lon="-3.3890633"><ele>729.0</ele><time>2026-03-28T17:41:12.316Z</time></trkpt><trkpt lat="40.6585983" lon="-3.3890483"><ele>729.0</ele><time>2026-03-28T17:41:13.317Z</time></trkpt><trkpt lat="40.6587117" lon="-3.3890233"><ele>729.0</ele><time>2026-03-28T17:41:14.316Z</time></trkpt><trkpt lat="40.6588133" lon="-3.3889967"><ele>729.4000000000001</ele><time>2026-03-28T17:41:15.317Z</time></trkpt><trkpt lat="40.6589117" lon="-3.3889917"><ele>729.8</ele><time>2026-03-28T17:41:16.317Z</time></trkpt><trkpt lat="40.659015" lon="-3.3889933"><ele>730.2</ele><time>2026-03-28T17:41:17.317Z</time></trkpt><trkpt lat="40.65911" lon="-3.3889967"><ele>730.5999999999999</ele><time>2026-03-28T17:41:18.317Z</time></trkpt><trkpt lat="40.6591867" lon="-3.3889917"><ele>731.0</ele><time>2026-03-28T17:41:19.317Z</time></trkpt><trkpt lat="40.6592833" lon="-3.388985"><ele>731.0</ele><time>2026-03-28T17:41:21.317Z</time></trkpt><trkpt lat="40.6593" lon="-3.3890833"><ele>731.0</ele><time>2026-03-28T17:41:25.317Z</time></trkpt><trkpt lat="40.65923" lon="-3.38916"><ele>731.0</ele><time>2026-03-28T17:41:28.316Z</time></trkpt><trkpt lat="40.6591033" lon="-3.3892633"><ele>731.0</ele><time>2026-03-28T17:41:30.317Z</time></trkpt><trkpt lat="40.659015" lon="-3.3893433"><ele>731.0</ele><time>2026-03-28T17:41:31.317Z</time></trkpt><trkpt lat="40.65893" lon="-3.3894317"><ele>731.0</ele><time>2026-03-28T17:41:32.317Z</time></trkpt><trkpt lat="40.6588433" lon="-3.389515"><ele>731.0</ele><time>2026-03-28T17:41:33.316Z</time></trkpt><trkpt lat="40.6587717" lon="-3.389585"><ele>731.0</ele><time>2026-03-28T17:41:34.317Z</time></trkpt><trkpt lat="40.65871" lon="-3.3896517"><ele>731.0</ele><time>2026-03-28T17:41:35.316Z</time></trkpt><trkpt lat="40.65865" lon="-3.3897"><ele>731.0</ele><time>2026-03-28T17:41:36.317Z</time></trkpt><trkpt lat="40.65859" lon="-3.3897483"><ele>731.0</ele><time>2026-03-28T17:41:37.317Z</time></trkpt><trkpt lat="40.6584817" lon="-3.3897983"><ele>730.5714285714286</ele><time>2026-03-28T17:41:39.316Z</time></trkpt><trkpt lat="40.65841" lon="-3.38982"><ele>730.1428571428571</ele><time>2026-03-28T17:41:40.316Z</time></trkpt><trkpt lat="40.65834" lon="-3.389865"><ele>729.7142857142858</ele><time>2026-03-28T17:41:41.316Z</time></trkpt><trkpt lat="40.6582717" lon="-3.389905"><ele>729.2857142857142</ele><time>2026-03-28T17:41:42.316Z</time></trkpt><trkpt lat="40.6582117" lon="-3.3899333"><ele>728.8571428571429</ele><time>2026-03-28T17:41:43.317Z</time></trkpt><trkpt lat="40.6581483" lon="-3.3899483"><ele>728.4285714285714</ele><time>2026-03-28T17:41:44.316Z</time></trkpt><trkpt lat="40.6580667" lon="-3.38996"><ele>728.0</ele><time>2026-03-28T17:41:45.317Z</time></trkpt><trkpt lat="40.6579617" lon="-3.3899667"><ele>728.0</ele><time>2026-03-28T17:41:46.317Z</time></trkpt><trkpt lat="40.6578467" lon="-3.3899683"><ele>728.0</ele><time>2026-03-28T17:41:47.317Z</time></trkpt><trkpt lat="40.6577417" lon="-3.3899633"><ele>728.0</ele><time>2026-03-28T17:41:48.317Z</time></trkpt><trkpt lat="40.6576483" lon="-3.3899583"><ele>728.0</ele><time>2026-03-28T17:41:49.317Z</time></trkpt><trkpt lat="40.657555" lon="-3.389945"><ele>728.0</ele><time>2026-03-28T17:41:50.317Z</time></trkpt><trkpt lat="40.65746" lon="-3.38992"><ele>728.0</ele><time>2026-03-28T17:41:51.316Z</time></trkpt><trkpt lat="40.65736" lon="-3.389885"><ele>728.0</ele><time>2026-03-28T17:41:52.317Z</time></trkpt><trkpt lat="40.65726" lon="-3.38985"><ele>728.0</ele><time>2026-03-28T17:41:53.317Z</time></trkpt><trkpt lat="40.657165" lon="-3.3898233"><ele>728.0</ele><time>2026-03-28T17:41:54.317Z</time></trkpt><trkpt lat="40.65707" lon="-3.3898"><ele>728.0</ele><time>2026-03-28T17:41:55.317Z</time></trkpt><trkpt lat="40.656975" lon="-3.38978"><ele>727.8</ele><time>2026-03-28T17:41:56.317Z</time></trkpt><trkpt lat="40.6568717" lon="-3.389765"><ele>727.5999999999999</ele><time>2026-03-28T17:41:57.316Z</time></trkpt><trkpt lat="40.6567667" lon="-3.38976"><ele>727.4000000000001</ele><time>2026-03-28T17:41:58.317Z</time></trkpt><trkpt lat="40.6566733" lon="-3.38977"><ele>727.2</ele><time>2026-03-28T17:41:59.316Z</time></trkpt><trkpt lat="40.65658" lon="-3.389785"><ele>727.0</ele><time>2026-03-28T17:42:00.316Z</time></trkpt><trkpt lat="40.656485" lon="-3.3897917"><ele>727.0</ele><time>2026-03-28T17:42:01.316Z</time></trkpt><trkpt lat="40.6564017" lon="-3.3898033"><ele>727.0</ele><time>2026-03-28T17:42:02.317Z</time></trkpt><trkpt lat="40.65633" lon="-3.3898233"><ele>727.0</ele><time>2026-03-28T17:42:03.317Z</time></trkpt><trkpt lat="40.6562617" lon="-3.3898467"><ele>727.0</ele><time>2026-03-28T17:42:04.317Z</time></trkpt><trkpt lat="40.6561967" lon="-3.3898633"><ele>727.0</ele><time>2026-03-28T17:42:05.316Z</time></trkpt><trkpt lat="40.6561233" lon="-3.389885"><ele>727.0</ele><time>2026-03-28T17:42:06.317Z</time></trkpt><trkpt lat="40.65605" lon="-3.3898967"><ele>727.0</ele><time>2026-03-28T17:42:07.317Z</time></trkpt><trkpt lat="40.655985" lon="-3.3899067"><ele>727.1666666666667</ele><time>2026-03-28T17:42:08.316Z</time></trkpt><trkpt lat="40.6558733" lon="-3.3898817"><ele>727.3333333333334</ele><time>2026-03-28T17:42:10.316Z</time></trkpt><trkpt lat="40.655775" lon="-3.38982"><ele>727.5</ele><time>2026-03-28T17:42:12.317Z</time></trkpt><trkpt lat="40.6557183" lon="-3.3897817"><ele>727.6666666666666</ele><time>2026-03-28T17:42:13.317Z</time></trkpt><trkpt lat="40.6556617" lon="-3.3897317"><ele>727.8333333333333</ele><time>2026-03-28T17:42:14.317Z</time></trkpt><trkpt lat="40.655605" lon="-3.3896767"><ele>728.0</ele><time>2026-03-28T17:42:15.317Z</time></trkpt><trkpt lat="40.6555517" lon="-3.3896283"><ele>727.6666666666666</ele><time>2026-03-28T17:42:16.317Z</time></trkpt><trkpt lat="40.6554617" lon="-3.3895533"><ele>727.3333333333333</ele><time>2026-03-28T17:42:18.317Z</time></trkpt><trkpt lat="40.6553867" lon="-3.3895083"><ele>727.0</ele><time>2026-03-28T17:42:20.316Z</time></trkpt><trkpt lat="40.6553233" lon="-3.38946"><ele>726.6666666666666</ele><time>2026-03-28T17:42:22.316Z</time></trkpt><trkpt lat="40.6552467" lon="-3.3894167"><ele>726.3333333333334</ele><time>2026-03-28T17:42:24.317Z</time></trkpt><trkpt lat="40.655155" lon="-3.38936"><ele>726.0</ele><time>2026-03-28T17:42:26.317Z</time></trkpt><trkpt lat="40.655095" lon="-3.3893117"><ele>725.9999999999999</ele><time>2026-03-28T17:42:27.317Z</time></trkpt><trkpt lat="40.6550233" lon="-3.3892683"><ele>726.0</ele><time>2026-03-28T17:42:28.317Z</time></trkpt><trkpt lat="40.6549517" lon="-3.389225"><ele>726.0</ele><time>2026-03-28T17:42:29.317Z</time></trkpt><trkpt lat="40.6548817" lon="-3.389185"><ele>726.0</ele><time>2026-03-28T17:42:30.317Z</time></trkpt><trkpt lat="40.6548117" lon="-3.3891417"><ele>726.0</ele><time>2026-03-28T17:42:31.316Z</time></trkpt><trkpt lat="40.6547533" lon="-3.389095"><ele>725.9999999999999</ele><time>2026-03-28T17:42:32.317Z</time></trkpt><trkpt lat="40.65469" lon="-3.3890583"><ele>726.0</ele><time>2026-03-28T17:42:33.317Z</time></trkpt><trkpt lat="40.6546167" lon="-3.3890167"><ele>726.0</ele><time>2026-03-28T17:42:34.316Z</time></trkpt><trkpt lat="40.6545233" lon="-3.3889717"><ele>726.0</ele><time>2026-03-28T17:42:35.317Z</time></trkpt><trkpt lat="40.654425" lon="-3.388935"><ele>726.0</ele><time>2026-03-28T17:42:36.316Z</time></trkpt><trkpt lat="40.6543267" lon="-3.3889083"><ele>726.0</ele><time>2026-03-28T17:42:37.317Z</time></trkpt><trkpt lat="40.654235" lon="-3.3888917"><ele>726.0</ele><time>2026-03-28T17:42:38.317Z</time></trkpt><trkpt lat="40.654135" lon="-3.38888"><ele>726.4</ele><time>2026-03-28T17:42:39.316Z</time></trkpt><trkpt lat="40.65402" lon="-3.38886"><ele>726.8</ele><time>2026-03-28T17:42:40.316Z</time></trkpt><trkpt lat="40.653905" lon="-3.3888433"><ele>727.1999999999999</ele><time>2026-03-28T17:42:41.317Z</time></trkpt><trkpt lat="40.6538" lon="-3.3888333"><ele>727.5999999999999</ele><time>2026-03-28T17:42:42.317Z</time></trkpt><trkpt lat="40.65371" lon="-3.388825"><ele>728.0</ele><time>2026-03-28T17:42:43.317Z</time></trkpt><trkpt lat="40.653615" lon="-3.3888033"><ele>726.8</ele><time>2026-03-28T17:42:44.317Z</time></trkpt><trkpt lat="40.6535217" lon="-3.388785"><ele>725.5999999999999</ele><time>2026-03-28T17:42:45.317Z</time></trkpt><trkpt lat="40.6534217" lon="-3.3887683"><ele>724.4000000000001</ele><time>2026-03-28T17:42:46.317Z</time></trkpt><trkpt lat="40.6533183" lon="-3.3887533"><ele>723.2</ele><time>2026-03-28T17:42:47.317Z</time></trkpt><trkpt lat="40.6532267" lon="-3.3887367"><ele>722.0</ele><time>2026-03-28T17:42:48.317Z</time></trkpt><trkpt lat="40.6531417" lon="-3.3886983"><ele>722.0</ele><time>2026-03-28T17:42:49.317Z</time></trkpt><trkpt lat="40.6530433" lon="-3.388655"><ele>722.0</ele><time>2026-03-28T17:42:50.317Z</time></trkpt><trkpt lat="40.6529433" lon="-3.3886183"><ele>722.0</ele><time>2026-03-28T17:42:51.317Z</time></trkpt><trkpt lat="40.6528517" lon="-3.3885967"><ele>722.0</ele><time>2026-03-28T17:42:52.317Z</time></trkpt><trkpt lat="40.6527633" lon="-3.3885767"><ele>722.0</ele><time>2026-03-28T17:42:53.316Z</time></trkpt><trkpt lat="40.6526683" lon="-3.3885517"><ele>722.4000000000001</ele><time>2026-03-28T17:42:54.317Z</time></trkpt><trkpt lat="40.6525683" lon="-3.38852"><ele>722.8000000000001</ele><time>2026-03-28T17:42:55.317Z</time></trkpt><trkpt lat="40.6524733" lon="-3.3884883"><ele>723.2</ele><time>2026-03-28T17:42:56.317Z</time></trkpt><trkpt lat="40.6523767" lon="-3.3884633"><ele>723.6</ele><time>2026-03-28T17:42:57.316Z</time></trkpt><trkpt lat="40.6522867" lon="-3.3884417"><ele>724.0</ele><time>2026-03-28T17:42:58.316Z</time></trkpt><trkpt lat="40.6521933" lon="-3.3884283"><ele>724.0</ele><time>2026-03-28T17:42:59.316Z</time></trkpt><trkpt lat="40.6521017" lon="-3.3884017"><ele>724.0</ele><time>2026-03-28T17:43:00.317Z</time></trkpt><trkpt lat="40.6520083" lon="-3.3883817"><ele>724.0</ele><time>2026-03-28T17:43:01.316Z</time></trkpt><trkpt lat="40.6519167" lon="-3.3883583"><ele>724.0</ele><time>2026-03-28T17:43:02.317Z</time></trkpt><trkpt lat="40.65182" lon="-3.3883367"><ele>724.0</ele><time>2026-03-28T17:43:03.316Z</time></trkpt><trkpt lat="40.6517267" lon="-3.388325"><ele>723.8000000000001</ele><time>2026-03-28T17:43:04.317Z</time></trkpt><trkpt lat="40.65163" lon="-3.38833"><ele>723.6</ele><time>2026-03-28T17:43:05.317Z</time></trkpt><trkpt lat="40.6515367" lon="-3.3883333"><ele>723.4</ele><time>2026-03-28T17:43:06.317Z</time></trkpt><trkpt lat="40.651435" lon="-3.3883483"><ele>723.2</ele><time>2026-03-28T17:43:07.317Z</time></trkpt><trkpt lat="40.6513283" lon="-3.3883683"><ele>723.0</ele><time>2026-03-28T17:43:08.317Z</time></trkpt><trkpt lat="40.6512233" lon="-3.3883867"><ele>723.0</ele><time>2026-03-28T17:43:09.317Z</time></trkpt><trkpt lat="40.65113" lon="-3.3884033"><ele>723.0</ele><time>2026-03-28T17:43:10.316Z</time></trkpt><trkpt lat="40.6510483" lon="-3.388415"><ele>723.0</ele><time>2026-03-28T17:43:11.316Z</time></trkpt><trkpt lat="40.6509717" lon="-3.3884217"><ele>723.0</ele><time>2026-03-28T17:43:12.316Z</time></trkpt><trkpt lat="40.6508883" lon="-3.38843"><ele>723.0</ele><time>2026-03-28T17:43:13.317Z</time></trkpt><trkpt lat="40.6508067" lon="-3.3884317"><ele>723.0</ele><time>2026-03-28T17:43:14.316Z</time></trkpt><trkpt lat="40.6507333" lon="-3.3884333"><ele>722.6666666666666</ele><time>2026-03-28T17:43:15.317Z</time></trkpt><trkpt lat="40.6506483" lon="-3.3884333"><ele>722.3333333333334</ele><time>2026-03-28T17:43:16.317Z</time></trkpt><trkpt lat="40.6505533" lon="-3.3884317"><ele>722.0</ele><time>2026-03-28T17:43:17.317Z</time></trkpt><trkpt lat="40.6504667" lon="-3.3884267"><ele>721.6666666666667</ele><time>2026-03-28T17:43:18.316Z</time></trkpt><trkpt lat="40.65039" lon="-3.38841"><ele>721.3333333333334</ele><time>2026-03-28T17:43:19.317Z</time></trkpt><trkpt lat="40.6503133" lon="-3.3883917"><ele>721.0</ele><time>2026-03-28T17:43:20.316Z</time></trkpt><trkpt lat="40.6502383" lon="-3.38837"><ele>720.5714285714286</ele><time>2026-03-28T17:43:21.316Z</time></trkpt><trkpt lat="40.6501717" lon="-3.388345"><ele>720.1428571428571</ele><time>2026-03-28T17:43:22.317Z</time></trkpt><trkpt lat="40.65011" lon="-3.38832"><ele>719.7142857142858</ele><time>2026-03-28T17:43:23.316Z</time></trkpt><trkpt lat="40.650045" lon="-3.3883017"><ele>719.2857142857142</ele><time>2026-03-28T17:43:24.317Z</time></trkpt><trkpt lat="40.64998" lon="-3.3882867"><ele>718.8571428571429</ele><time>2026-03-28T17:43:25.317Z</time></trkpt><trkpt lat="40.6499083" lon="-3.3882667"><ele>718.4285714285714</ele><time>2026-03-28T17:43:26.317Z</time></trkpt><trkpt lat="40.6498217" lon="-3.3882517"><ele>718.0</ele><time>2026-03-28T17:43:27.316Z</time></trkpt><trkpt lat="40.6497317" lon="-3.3882333"><ele>718.0</ele><time>2026-03-28T17:43:28.316Z</time></trkpt><trkpt lat="40.6496417" lon="-3.3882133"><ele>718.0</ele><time>2026-03-28T17:43:29.316Z</time></trkpt><trkpt lat="40.6495617" lon="-3.388195"><ele>718.0</ele><time>2026-03-28T17:43:30.317Z</time></trkpt><trkpt lat="40.6494817" lon="-3.3881733"><ele>718.0</ele><time>2026-03-28T17:43:31.317Z</time></trkpt><trkpt lat="40.64939" lon="-3.3881533"><ele>718.0</ele><time>2026-03-28T17:43:32.317Z</time></trkpt><trkpt lat="40.6492967" lon="-3.3881333"><ele>718.0</ele><time>2026-03-28T17:43:33.317Z</time></trkpt><trkpt lat="40.6492083" lon="-3.3881117"><ele>717.4</ele><time>2026-03-28T17:43:34.317Z</time></trkpt><trkpt lat="40.6491133" lon="-3.3880983"><ele>716.8</ele><time>2026-03-28T17:43:35.317Z</time></trkpt><trkpt lat="40.6490183" lon="-3.388075"><ele>716.2</ele><time>2026-03-28T17:43:36.317Z</time></trkpt><trkpt lat="40.6489167" lon="-3.3880533"><ele>715.6</ele><time>2026-03-28T17:43:37.316Z</time></trkpt><trkpt lat="40.64882" lon="-3.3880317"><ele>715.0</ele><time>2026-03-28T17:43:38.317Z</time></trkpt><trkpt lat="40.6487283" lon="-3.3880133"><ele>715.0</ele><time>2026-03-28T17:43:39.317Z</time></trkpt><trkpt lat="40.64863" lon="-3.3879933"><ele>715.0</ele><time>2026-03-28T17:43:40.317Z</time></trkpt><trkpt lat="40.6485233" lon="-3.3879733"><ele>715.0</ele><time>2026-03-28T17:43:41.316Z</time></trkpt><trkpt lat="40.64842" lon="-3.3879467"><ele>715.0</ele><time>2026-03-28T17:43:42.317Z</time></trkpt><trkpt lat="40.6483217" lon="-3.3879267"><ele>715.0</ele><time>2026-03-28T17:43:43.316Z</time></trkpt><trkpt lat="40.6482317" lon="-3.38791"><ele>714.8333333333334</ele><time>2026-03-28T17:43:44.317Z</time></trkpt><trkpt lat="40.6481417" lon="-3.387895"><ele>714.6666666666667</ele><time>2026-03-28T17:43:45.317Z</time></trkpt><trkpt lat="40.6480533" lon="-3.3878783"><ele>714.5</ele><time>2026-03-28T17:43:46.317Z</time></trkpt><trkpt lat="40.64798" lon="-3.38787"><ele>714.3333333333334</ele><time>2026-03-28T17:43:47.317Z</time></trkpt><trkpt lat="40.6479167" lon="-3.3878533"><ele>714.1666666666666</ele><time>2026-03-28T17:43:48.317Z</time></trkpt><trkpt lat="40.6478383" lon="-3.3878367"><ele>714.0</ele><time>2026-03-28T17:43:50.317Z</time></trkpt><trkpt lat="40.64774" lon="-3.3878217"><ele>713.6</ele><time>2026-03-28T17:44:02.316Z</time></trkpt><trkpt lat="40.6476667" lon="-3.387805"><ele>713.2</ele><time>2026-03-28T17:44:03.317Z</time></trkpt><trkpt lat="40.6475867" lon="-3.3877917"><ele>712.8000000000001</ele><time>2026-03-28T17:44:04.316Z</time></trkpt><trkpt lat="40.64749" lon="-3.38777"><ele>712.4000000000001</ele><time>2026-03-28T17:44:05.317Z</time></trkpt><trkpt lat="40.6473833" lon="-3.3877533"><ele>712.0</ele><time>2026-03-28T17:44:06.317Z</time></trkpt><trkpt lat="40.64729" lon="-3.387735"><ele>712.0</ele><time>2026-03-28T17:44:07.317Z</time></trkpt><trkpt lat="40.6471933" lon="-3.38771"><ele>712.0</ele><time>2026-03-28T17:44:08.317Z</time></trkpt><trkpt lat="40.6470917" lon="-3.387685"><ele>712.0</ele><time>2026-03-28T17:44:09.316Z</time></trkpt><trkpt lat="40.6469917" lon="-3.3876633"><ele>712.0</ele><time>2026-03-28T17:44:10.317Z</time></trkpt><trkpt lat="40.6469067" lon="-3.3876483"><ele>712.0</ele><time>2026-03-28T17:44:11.316Z</time></trkpt><trkpt lat="40.646835" lon="-3.3876317"><ele>711.6</ele><time>2026-03-28T17:44:12.317Z</time></trkpt><trkpt lat="40.6467583" lon="-3.3876067"><ele>711.2</ele><time>2026-03-28T17:44:13.317Z</time></trkpt><trkpt lat="40.646675" lon="-3.3875867"><ele>710.8</ele><time>2026-03-28T17:44:14.317Z</time></trkpt><trkpt lat="40.6465817" lon="-3.387565"><ele>710.4</ele><time>2026-03-28T17:44:15.317Z</time></trkpt><trkpt lat="40.6464733" lon="-3.3875583"><ele>710.0</ele><time>2026-03-28T17:44:16.316Z</time></trkpt><trkpt lat="40.6463767" lon="-3.3875383"><ele>710.0</ele><time>2026-03-28T17:44:17.317Z</time></trkpt><trkpt lat="40.646285" lon="-3.38752"><ele>710.0</ele><time>2026-03-28T17:44:18.317Z</time></trkpt><trkpt lat="40.6461883" lon="-3.3875"><ele>710.0</ele><time>2026-03-28T17:44:19.317Z</time></trkpt><trkpt lat="40.646075" lon="-3.38747"><ele>710.0</ele><time>2026-03-28T17:44:20.317Z</time></trkpt><trkpt lat="40.6459517" lon="-3.3874467"><ele>710.0</ele><time>2026-03-28T17:44:21.317Z</time></trkpt><trkpt lat="40.6458267" lon="-3.3874283"><ele>710.0</ele><time>2026-03-28T17:44:22.316Z</time></trkpt><trkpt lat="40.6457183" lon="-3.3874067"><ele>710.0</ele><time>2026-03-28T17:44:23.317Z</time></trkpt><trkpt lat="40.64561" lon="-3.3873867"><ele>710.0</ele><time>2026-03-28T17:44:24.317Z</time></trkpt><trkpt lat="40.6455017" lon="-3.3873633"><ele>710.0</ele><time>2026-03-28T17:44:25.317Z</time></trkpt><trkpt lat="40.645375" lon="-3.3873367"><ele>709.75</ele><time>2026-03-28T17:44:26.316Z</time></trkpt><trkpt lat="40.6452517" lon="-3.3873117"><ele>709.5</ele><time>2026-03-28T17:44:27.317Z</time></trkpt><trkpt lat="40.64513" lon="-3.3872867"><ele>709.25</ele><time>2026-03-28T17:44:28.317Z</time></trkpt><trkpt lat="40.6450133" lon="-3.38727"><ele>709.0</ele><time>2026-03-28T17:44:29.316Z</time></trkpt><trkpt lat="40.6449217" lon="-3.3872483"><ele>709.0</ele><time>2026-03-28T17:44:30.317Z</time></trkpt><trkpt lat="40.6448267" lon="-3.3872283"><ele>709.0</ele><time>2026-03-28T17:44:31.317Z</time></trkpt><trkpt lat="40.644725" lon="-3.387205"><ele>709.0</ele><time>2026-03-28T17:44:32.317Z</time></trkpt><trkpt lat="40.6446133" lon="-3.387185"><ele>709.0</ele><time>2026-03-28T17:44:33.316Z</time></trkpt><trkpt lat="40.644505" lon="-3.387165"><ele>709.0</ele><time>2026-03-28T17:44:34.316Z</time></trkpt><trkpt lat="40.644405" lon="-3.3871517"><ele>708.8000000000001</ele><time>2026-03-28T17:44:35.317Z</time></trkpt><trkpt lat="40.6443067" lon="-3.387145"><ele>708.6</ele><time>2026-03-28T17:44:36.316Z</time></trkpt><trkpt lat="40.6442167" lon="-3.38712"><ele>708.4</ele><time>2026-03-28T17:44:37.317Z</time></trkpt><trkpt lat="40.6441283" lon="-3.387085"><ele>708.2</ele><time>2026-03-28T17:44:38.317Z</time></trkpt><trkpt lat="40.6440333" lon="-3.3870567"><ele>708.0</ele><time>2026-03-28T17:44:39.317Z</time></trkpt><trkpt lat="40.6439367" lon="-3.387035"><ele>708.0</ele><time>2026-03-28T17:44:40.317Z</time></trkpt><trkpt lat="40.643825" lon="-3.387005"><ele>708.0</ele><time>2026-03-28T17:44:41.317Z</time></trkpt><trkpt lat="40.643705" lon="-3.3869667"><ele>708.0</ele><time>2026-03-28T17:44:42.317Z</time></trkpt><trkpt lat="40.643585" lon="-3.386945"><ele>708.0</ele><time>2026-03-28T17:44:43.317Z</time></trkpt><trkpt lat="40.6434517" lon="-3.38692"><ele>707.0</ele><time>2026-03-28T17:44:44.316Z</time></trkpt><trkpt lat="40.643315" lon="-3.3868833"><ele>706.0</ele><time>2026-03-28T17:44:45.317Z</time></trkpt><trkpt lat="40.6431783" lon="-3.3868733"><ele>705.0</ele><time>2026-03-28T17:44:46.317Z</time></trkpt><trkpt lat="40.643055" lon="-3.386855"><ele>704.0</ele><time>2026-03-28T17:44:47.317Z</time></trkpt><trkpt lat="40.6429533" lon="-3.38683"><ele>704.0</ele><time>2026-03-28T17:44:48.317Z</time></trkpt><trkpt lat="40.6428433" lon="-3.38681"><ele>704.0</ele><time>2026-03-28T17:44:49.317Z</time></trkpt><trkpt lat="40.64273" lon="-3.3867867"><ele>704.0</ele><time>2026-03-28T17:44:50.316Z</time></trkpt><trkpt lat="40.64261" lon="-3.3867717"><ele>704.0</ele><time>2026-03-28T17:44:51.317Z</time></trkpt><trkpt lat="40.642495" lon="-3.3867583"><ele>704.6</ele><time>2026-03-28T17:44:52.317Z</time></trkpt><trkpt lat="40.64238" lon="-3.3867383"><ele>705.2</ele><time>2026-03-28T17:44:53.317Z</time></trkpt><trkpt lat="40.64227" lon="-3.3867267"><ele>705.8000000000001</ele><time>2026-03-28T17:44:54.316Z</time></trkpt><trkpt lat="40.6421783" lon="-3.3867067"><ele>706.4000000000001</ele><time>2026-03-28T17:44:55.317Z</time></trkpt><trkpt lat="40.6420833" lon="-3.386685"><ele>707.0</ele><time>2026-03-28T17:44:56.316Z</time></trkpt><trkpt lat="40.6419867" lon="-3.3866617"><ele>706.8</ele><time>2026-03-28T17:44:57.316Z</time></trkpt><trkpt lat="40.6418967" lon="-3.38663"><ele>706.6</ele><time>2026-03-28T17:44:58.317Z</time></trkpt><trkpt lat="40.6418017" lon="-3.3865967"><ele>706.4</ele><time>2026-03-28T17:44:59.316Z</time></trkpt><trkpt lat="40.6417117" lon="-3.3865567"><ele>706.1999999999999</ele><time>2026-03-28T17:45:00.316Z</time></trkpt><trkpt lat="40.6416233" lon="-3.38652"><ele>706.0</ele><time>2026-03-28T17:45:01.317Z</time></trkpt><trkpt lat="40.64153" lon="-3.3864917"><ele>706.0</ele><time>2026-03-28T17:45:02.317Z</time></trkpt><trkpt lat="40.6414383" lon="-3.3864633"><ele>706.0</ele><time>2026-03-28T17:45:03.317Z</time></trkpt><trkpt lat="40.6413417" lon="-3.386435"><ele>706.0</ele><time>2026-03-28T17:45:04.317Z</time></trkpt><trkpt lat="40.6412467" lon="-3.3864"><ele>706.0</ele><time>2026-03-28T17:45:05.317Z</time></trkpt><trkpt lat="40.64115" lon="-3.38637"><ele>706.0</ele><time>2026-03-28T17:45:06.317Z</time></trkpt><trkpt lat="40.64104" lon="-3.3863417"><ele>705.75</ele><time>2026-03-28T17:45:07.316Z</time></trkpt><trkpt lat="40.6409283" lon="-3.3863167"><ele>705.5</ele><time>2026-03-28T17:45:08.317Z</time></trkpt><trkpt lat="40.640815" lon="-3.3863033"><ele>705.25</ele><time>2026-03-28T17:45:09.317Z</time></trkpt><trkpt lat="40.640695" lon="-3.3862967"><ele>705.0</ele><time>2026-03-28T17:45:10.317Z</time></trkpt><trkpt lat="40.6405717" lon="-3.3863067"><ele>705.0</ele><time>2026-03-28T17:45:11.317Z</time></trkpt><trkpt lat="40.640445" lon="-3.3863217"><ele>705.0</ele><time>2026-03-28T17:45:12.316Z</time></trkpt><trkpt lat="40.6403267" lon="-3.38635"><ele>705.0</ele><time>2026-03-28T17:45:13.316Z</time></trkpt><trkpt lat="40.6402083" lon="-3.3863867"><ele>705.0</ele><time>2026-03-28T17:45:14.316Z</time></trkpt><trkpt lat="40.6400867" lon="-3.3864233"><ele>704.0</ele><time>2026-03-28T17:45:15.316Z</time></trkpt><trkpt lat="40.6399567" lon="-3.3864633"><ele>703.0</ele><time>2026-03-28T17:45:16.317Z</time></trkpt><trkpt lat="40.6398317" lon="-3.3864883"><ele>702.0</ele><time>2026-03-28T17:45:17.317Z</time></trkpt><trkpt lat="40.639715" lon="-3.3865117"><ele>701.0</ele><time>2026-03-28T17:45:18.317Z</time></trkpt><trkpt lat="40.6396167" lon="-3.38653"><ele>701.0</ele><time>2026-03-28T17:45:19.317Z</time></trkpt><trkpt lat="40.6395233" lon="-3.386555"><ele>701.0</ele><time>2026-03-28T17:45:20.317Z</time></trkpt><trkpt lat="40.6394383" lon="-3.386585"><ele>701.0</ele><time>2026-03-28T17:45:21.316Z</time></trkpt><trkpt lat="40.6393517" lon="-3.3866067"><ele>701.0</ele><time>2026-03-28T17:45:22.316Z</time></trkpt><trkpt lat="40.6392717" lon="-3.3866217"><ele>701.0</ele><time>2026-03-28T17:45:23.317Z</time></trkpt><trkpt lat="40.6391917" lon="-3.3866233"><ele>701.0</ele><time>2026-03-28T17:45:24.317Z</time></trkpt><trkpt lat="40.6391167" lon="-3.38663"><ele>700.6666666666666</ele><time>2026-03-28T17:45:25.317Z</time></trkpt><trkpt lat="40.6390417" lon="-3.3866333"><ele>700.3333333333333</ele><time>2026-03-28T17:45:26.317Z</time></trkpt><trkpt lat="40.6389717" lon="-3.3866283"><ele>700.0</ele><time>2026-03-28T17:45:27.316Z</time></trkpt><trkpt lat="40.6388983" lon="-3.3866133"><ele>699.6666666666666</ele><time>2026-03-28T17:45:28.317Z</time></trkpt><trkpt lat="40.6388367" lon="-3.3865917"><ele>699.3333333333334</ele><time>2026-03-28T17:45:29.317Z</time></trkpt><trkpt lat="40.6387167" lon="-3.38657"><ele>699.0</ele><time>2026-03-28T17:45:31.317Z</time></trkpt><trkpt lat="40.63865" lon="-3.3865583"><ele>698.2</ele><time>2026-03-28T17:45:32.317Z</time></trkpt><trkpt lat="40.6385867" lon="-3.386555"><ele>697.4000000000001</ele><time>2026-03-28T17:45:33.316Z</time></trkpt><trkpt lat="40.6384883" lon="-3.386555"><ele>696.6</ele><time>2026-03-28T17:45:35.317Z</time></trkpt><trkpt lat="40.6384133" lon="-3.3865417"><ele>695.8</ele><time>2026-03-28T17:45:37.316Z</time></trkpt><trkpt lat="40.6383117" lon="-3.3865283"><ele>695.0</ele><time>2026-03-28T17:45:51.317Z</time></trkpt><trkpt lat="40.6381817" lon="-3.386505"><ele>695.0000000000001</ele><time>2026-03-28T17:45:53.316Z</time></trkpt><trkpt lat="40.6381033" lon="-3.3864833"><ele>695.0</ele><time>2026-03-28T17:45:54.316Z</time></trkpt><trkpt lat="40.6380267" lon="-3.3864683"><ele>695.0</ele><time>2026-03-28T17:45:55.317Z</time></trkpt><trkpt lat="40.6379567" lon="-3.3864433"><ele>695.0</ele><time>2026-03-28T17:45:56.317Z</time></trkpt><trkpt lat="40.63788" lon="-3.3864183"><ele>695.0</ele><time>2026-03-28T17:45:57.317Z</time></trkpt><trkpt lat="40.6378117" lon="-3.3863933"><ele>695.0000000000001</ele><time>2026-03-28T17:45:58.317Z</time></trkpt><trkpt lat="40.6377467" lon="-3.386375"><ele>695.0</ele><time>2026-03-28T17:45:59.317Z</time></trkpt><trkpt lat="40.63766" lon="-3.386365"><ele>694.8333333333333</ele><time>2026-03-28T17:46:00.316Z</time></trkpt><trkpt lat="40.6375767" lon="-3.38635"><ele>694.6666666666666</ele><time>2026-03-28T17:46:01.317Z</time></trkpt><trkpt lat="40.6374917" lon="-3.38634"><ele>694.5</ele><time>2026-03-28T17:46:02.317Z</time></trkpt><trkpt lat="40.63741" lon="-3.38633"><ele>694.3333333333334</ele><time>2026-03-28T17:46:03.316Z</time></trkpt><trkpt lat="40.6373183" lon="-3.3863233"><ele>694.1666666666667</ele><time>2026-03-28T17:46:04.317Z</time></trkpt><trkpt lat="40.63724" lon="-3.3863067"><ele>694.0</ele><time>2026-03-28T17:46:05.317Z</time></trkpt><trkpt lat="40.6371533" lon="-3.3862883"><ele>693.8000000000001</ele><time>2026-03-28T17:46:06.317Z</time></trkpt><trkpt lat="40.63707" lon="-3.386275"><ele>693.6</ele><time>2026-03-28T17:46:07.317Z</time></trkpt><trkpt lat="40.6369867" lon="-3.3862617"><ele>693.4</ele><time>2026-03-28T17:46:08.317Z</time></trkpt><trkpt lat="40.6368967" lon="-3.386235"><ele>693.2</ele><time>2026-03-28T17:46:09.317Z</time></trkpt><trkpt lat="40.63679" lon="-3.3862133"><ele>693.0</ele><time>2026-03-28T17:46:10.316Z</time></trkpt><trkpt lat="40.6366817" lon="-3.386195"><ele>692.8</ele><time>2026-03-28T17:46:11.317Z</time></trkpt><trkpt lat="40.6365783" lon="-3.3861867"><ele>692.5999999999999</ele><time>2026-03-28T17:46:12.317Z</time></trkpt><trkpt lat="40.6364733" lon="-3.38619"><ele>692.4000000000001</ele><time>2026-03-28T17:46:13.317Z</time></trkpt><trkpt lat="40.6363583" lon="-3.3862067"><ele>692.2</ele><time>2026-03-28T17:46:14.317Z</time></trkpt><trkpt lat="40.6362567" lon="-3.3862167"><ele>692.0</ele><time>2026-03-28T17:46:15.317Z</time></trkpt><trkpt lat="40.6361667" lon="-3.38622"><ele>691.5</ele><time>2026-03-28T17:46:16.317Z</time></trkpt><trkpt lat="40.63608" lon="-3.3862233"><ele>691.0</ele><time>2026-03-28T17:46:17.317Z</time></trkpt><trkpt lat="40.6359883" lon="-3.3862367"><ele>690.5</ele><time>2026-03-28T17:46:18.317Z</time></trkpt><trkpt lat="40.6358983" lon="-3.386245"><ele>690.0</ele><time>2026-03-28T17:46:19.317Z</time></trkpt><trkpt lat="40.635815" lon="-3.38626"><ele>689.5</ele><time>2026-03-28T17:46:20.317Z</time></trkpt><trkpt lat="40.6357317" lon="-3.3862817"><ele>689.0</ele><time>2026-03-28T17:46:21.316Z</time></trkpt><trkpt lat="40.6356517" lon="-3.3863067"><ele>689.0</ele><time>2026-03-28T17:46:22.317Z</time></trkpt><trkpt lat="40.635565" lon="-3.3863367"><ele>689.0</ele><time>2026-03-28T17:46:23.317Z</time></trkpt><trkpt lat="40.6354817" lon="-3.3863667"><ele>689.0</ele><time>2026-03-28T17:46:24.317Z</time></trkpt><trkpt lat="40.635405" lon="-3.3863917"><ele>689.0</ele><time>2026-03-28T17:46:25.316Z</time></trkpt><trkpt lat="40.6353367" lon="-3.3864117"><ele>689.0</ele><time>2026-03-28T17:46:26.316Z</time></trkpt><trkpt lat="40.635225" lon="-3.386455"><ele>689.0</ele><time>2026-03-28T17:46:28.317Z</time></trkpt><trkpt lat="40.6351317" lon="-3.38648"><ele>689.0</ele><time>2026-03-28T17:46:30.317Z</time></trkpt><trkpt lat="40.635065" lon="-3.38647"><ele>689.0</ele><time>2026-03-28T17:46:32.317Z</time></trkpt><trkpt lat="40.6349967" lon="-3.3864017"><ele>689.0</ele><time>2026-03-28T17:46:35.317Z</time></trkpt><trkpt lat="40.6349717" lon="-3.3862867"><ele>689.0</ele><time>2026-03-28T17:46:37.317Z</time></trkpt><trkpt lat="40.6349517" lon="-3.3862033"><ele>689.0</ele><time>2026-03-28T17:46:38.316Z</time></trkpt><trkpt lat="40.6349333" lon="-3.38612"><ele>689.0</ele><time>2026-03-28T17:46:39.317Z</time></trkpt><trkpt lat="40.6349017" lon="-3.385975"><ele>688.8000000000001</ele><time>2026-03-28T17:46:41.317Z</time></trkpt><trkpt lat="40.6348533" lon="-3.3858433"><ele>688.6</ele><time>2026-03-28T17:46:43.317Z</time></trkpt><trkpt lat="40.6348" lon="-3.385735"><ele>688.4</ele><time>2026-03-28T17:46:45.316Z</time></trkpt><trkpt lat="40.6347383" lon="-3.3856133"><ele>688.2</ele><time>2026-03-28T17:46:47.316Z</time></trkpt><trkpt lat="40.6346683" lon="-3.3855283"><ele>688.0</ele><time>2026-03-28T17:46:49.317Z</time></trkpt><trkpt lat="40.6346167" lon="-3.3854333"><ele>687.8333333333334</ele><time>2026-03-28T17:46:51.316Z</time></trkpt><trkpt lat="40.6345617" lon="-3.3853433"><ele>687.6666666666667</ele><time>2026-03-28T17:46:53.317Z</time></trkpt><trkpt lat="40.6345117" lon="-3.38526"><ele>687.5</ele><time>2026-03-28T17:46:55.317Z</time></trkpt><trkpt lat="40.6344617" lon="-3.3851583"><ele>687.3333333333334</ele><time>2026-03-28T17:46:57.317Z</time></trkpt><trkpt lat="40.63442" lon="-3.3850567"><ele>687.1666666666666</ele><time>2026-03-28T17:46:59.317Z</time></trkpt><trkpt lat="40.6343783" lon="-3.3849483"><ele>687.0</ele><time>2026-03-28T17:47:01.317Z</time></trkpt><trkpt lat="40.63433" lon="-3.3848383"><ele>686.6666666666666</ele><time>2026-03-28T17:47:03.316Z</time></trkpt><trkpt lat="40.6342917" lon="-3.38473"><ele>686.3333333333334</ele><time>2026-03-28T17:47:05.317Z</time></trkpt><trkpt lat="40.6342683" lon="-3.3846267"><ele>686.0</ele><time>2026-03-28T17:47:07.316Z</time></trkpt><trkpt lat="40.6342483" lon="-3.384535"><ele>685.6666666666667</ele><time>2026-03-28T17:47:09.316Z</time></trkpt><trkpt lat="40.6342117" lon="-3.384445"><ele>685.3333333333334</ele><time>2026-03-28T17:47:11.317Z</time></trkpt><trkpt lat="40.6341567" lon="-3.3843617"><ele>685.0</ele><time>2026-03-28T17:47:13.317Z</time></trkpt><trkpt lat="40.6341" lon="-3.3842867"><ele>684.2857142857142</ele><time>2026-03-28T17:47:15.316Z</time></trkpt><trkpt lat="40.6340367" lon="-3.384245"><ele>683.5714285714287</ele><time>2026-03-28T17:47:17.316Z</time></trkpt><trkpt lat="40.6339667" lon="-3.38422"><ele>682.8571428571429</ele><time>2026-03-28T17:47:19.316Z</time></trkpt><trkpt lat="40.6339033" lon="-3.384215"><ele>682.1428571428571</ele><time>2026-03-28T17:47:21.317Z</time></trkpt><trkpt lat="40.6338367" lon="-3.3842133"><ele>681.4285714285713</ele><time>2026-03-28T17:47:23.317Z</time></trkpt><trkpt lat="40.6337667" lon="-3.3841867"><ele>680.7142857142858</ele><time>2026-03-28T17:47:25.317Z</time></trkpt><trkpt lat="40.633705" lon="-3.3841567"><ele>680.0</ele><time>2026-03-28T17:47:27.317Z</time></trkpt><trkpt lat="40.6336383" lon="-3.3841267"><ele>680.0</ele><time>2026-03-28T17:47:29.317Z</time></trkpt><trkpt lat="40.633575" lon="-3.38411"><ele>680.0</ele><time>2026-03-28T17:47:31.317Z</time></trkpt><trkpt lat="40.63351" lon="-3.3840983"><ele>680.0</ele><time>2026-03-28T17:47:33.316Z</time></trkpt><trkpt lat="40.6334383" lon="-3.384085"><ele>680.0</ele><time>2026-03-28T17:47:43.317Z</time></trkpt><trkpt lat="40.633375" lon="-3.384055"><ele>680.0</ele><time>2026-03-28T17:47:45.317Z</time></trkpt><trkpt lat="40.6333217" lon="-3.3840017"><ele>680.0</ele><time>2026-03-28T17:47:47.317Z</time></trkpt><trkpt lat="40.63327" lon="-3.38391"><ele>680.0</ele><time>2026-03-28T17:47:50.317Z</time></trkpt><trkpt lat="40.633195" lon="-3.383815"><ele>679.6</ele><time>2026-03-28T17:47:52.317Z</time></trkpt><trkpt lat="40.6330967" lon="-3.38374"><ele>679.2</ele><time>2026-03-28T17:47:54.317Z</time></trkpt><trkpt lat="40.633025" lon="-3.3836567"><ele>678.8</ele><time>2026-03-28T17:47:56.317Z</time></trkpt><trkpt lat="40.6329433" lon="-3.38358"><ele>678.4</ele><time>2026-03-28T17:47:58.317Z</time></trkpt><trkpt lat="40.6328717" lon="-3.3835083"><ele>678.0</ele><time>2026-03-28T17:48:00.317Z</time></trkpt><trkpt lat="40.6328017" lon="-3.383455"><ele>678.0</ele><time>2026-03-28T17:48:02.316Z</time></trkpt><trkpt lat="40.632755" lon="-3.3833883"><ele>678.0</ele><time>2026-03-28T17:48:05.317Z</time></trkpt></trkseg></trk></gpx>